<?xml version="1.0" encoding="UTF-8" standalone="no" ?>
<gpx xmlns="http://www.topografix.com/GPX/1/1" xmlns:xsi="http://www.w3.org/2001/XMLSchema-instance" xsi:schemaLocation="http://www.topografix.com/GPX/1/1 http://www.topografix.com/GPX/1/1/gpx.xsd" version="1.1" creator="VisuGPX - https://www.visugpx.com">
  <metadata>
    <name>randonnée visite du nouveau barrage a villers devant mouzon</name>
    <desc><![CDATA[visite du nouveau barrage a villers devant mouzon]]></desc>
  </metadata>
  <trk>
    <name><![CDATA[Tracé actuel: 24 SEPT 2018 12:53]]></name>
    <trkseg>
      <trkpt lat="49.63454" lon="4.98058">
        <ele>195.77</ele>
        <time>2018-09-24T10:53:53Z</time>
      </trkpt>
      <trkpt lat="49.63455" lon="4.98055">
        <ele>193.84</ele>
        <time>2018-09-24T10:54:08Z</time>
      </trkpt>
      <trkpt lat="49.63456" lon="4.98048">
        <ele>190.96</ele>
        <time>2018-09-24T10:54:34Z</time>
      </trkpt>
      <trkpt lat="49.63455" lon="4.98046">
        <ele>190.96</ele>
        <time>2018-09-24T10:54:36Z</time>
      </trkpt>
      <trkpt lat="49.63439" lon="4.98033">
        <ele>186.15</ele>
        <time>2018-09-24T10:54:52Z</time>
      </trkpt>
      <trkpt lat="49.63424" lon="4.98012">
        <ele>180.87</ele>
        <time>2018-09-24T10:55:10Z</time>
      </trkpt>
      <trkpt lat="49.63412" lon="4.97992">
        <ele>175.58</ele>
        <time>2018-09-24T10:55:28Z</time>
      </trkpt>
      <trkpt lat="49.63397" lon="4.97965">
        <ele>171.73</ele>
        <time>2018-09-24T10:55:49Z</time>
      </trkpt>
      <trkpt lat="49.63387" lon="4.97946">
        <ele>168.85</ele>
        <time>2018-09-24T10:56:04Z</time>
      </trkpt>
      <trkpt lat="49.6339" lon="4.97939">
        <ele>169.81</ele>
        <time>2018-09-24T10:56:18Z</time>
      </trkpt>
      <trkpt lat="49.63399" lon="4.97924">
        <ele>170.29</ele>
        <time>2018-09-24T10:56:37Z</time>
      </trkpt>
      <trkpt lat="49.63405" lon="4.9792">
        <ele>169.33</ele>
        <time>2018-09-24T10:56:53Z</time>
      </trkpt>
      <trkpt lat="49.63413" lon="4.97914">
        <ele>169.81</ele>
        <time>2018-09-24T10:57:03Z</time>
      </trkpt>
      <trkpt lat="49.63434" lon="4.97904">
        <ele>170.29</ele>
        <time>2018-09-24T10:57:23Z</time>
      </trkpt>
      <trkpt lat="49.63456" lon="4.97889">
        <ele>170.77</ele>
        <time>2018-09-24T10:57:45Z</time>
      </trkpt>
      <trkpt lat="49.63473" lon="4.97864">
        <ele>172.21</ele>
        <time>2018-09-24T10:58:08Z</time>
      </trkpt>
      <trkpt lat="49.63487" lon="4.97841">
        <ele>170.77</ele>
        <time>2018-09-24T10:58:26Z</time>
      </trkpt>
      <trkpt lat="49.635" lon="4.97823">
        <ele>168.37</ele>
        <time>2018-09-24T10:58:43Z</time>
      </trkpt>
      <trkpt lat="49.63501" lon="4.97822">
        <ele>168.37</ele>
        <time>2018-09-24T10:58:44Z</time>
      </trkpt>
      <trkpt lat="49.63518" lon="4.97804">
        <ele>166.45</ele>
        <time>2018-09-24T10:59:02Z</time>
      </trkpt>
      <trkpt lat="49.63534" lon="4.97784">
        <ele>162.6</ele>
        <time>2018-09-24T10:59:20Z</time>
      </trkpt>
      <trkpt lat="49.63549" lon="4.97754">
        <ele>158.27</ele>
        <time>2018-09-24T10:59:41Z</time>
      </trkpt>
      <trkpt lat="49.63557" lon="4.97734">
        <ele>154.43</ele>
        <time>2018-09-24T10:59:58Z</time>
      </trkpt>
      <trkpt lat="49.63568" lon="4.97708">
        <ele>153.95</ele>
        <time>2018-09-24T11:00:17Z</time>
      </trkpt>
      <trkpt lat="49.6358" lon="4.97689">
        <ele>155.39</ele>
        <time>2018-09-24T11:00:36Z</time>
      </trkpt>
      <trkpt lat="49.63582" lon="4.97687">
        <ele>158.75</ele>
        <time>2018-09-24T11:00:52Z</time>
      </trkpt>
      <trkpt lat="49.63586" lon="4.97683">
        <ele>158.75</ele>
        <time>2018-09-24T11:00:56Z</time>
      </trkpt>
      <trkpt lat="49.63604" lon="4.97669">
        <ele>161.16</ele>
        <time>2018-09-24T11:01:14Z</time>
      </trkpt>
      <trkpt lat="49.63604" lon="4.97665">
        <ele>161.16</ele>
        <time>2018-09-24T11:01:17Z</time>
      </trkpt>
      <trkpt lat="49.63604" lon="4.9766">
        <ele>161.16</ele>
        <time>2018-09-24T11:01:33Z</time>
      </trkpt>
      <trkpt lat="49.63606" lon="4.97661">
        <ele>163.08</ele>
        <time>2018-09-24T11:01:51Z</time>
      </trkpt>
      <trkpt lat="49.6361" lon="4.97664">
        <ele>163.08</ele>
        <time>2018-09-24T11:01:55Z</time>
      </trkpt>
      <trkpt lat="49.63628" lon="4.9768">
        <ele>160.68</ele>
        <time>2018-09-24T11:02:13Z</time>
      </trkpt>
      <trkpt lat="49.63645" lon="4.97697">
        <ele>158.27</ele>
        <time>2018-09-24T11:02:32Z</time>
      </trkpt>
      <trkpt lat="49.63662" lon="4.97711">
        <ele>159.24</ele>
        <time>2018-09-24T11:02:50Z</time>
      </trkpt>
      <trkpt lat="49.63683" lon="4.97729">
        <ele>161.16</ele>
        <time>2018-09-24T11:03:10Z</time>
      </trkpt>
      <trkpt lat="49.6369" lon="4.97732">
        <ele>161.64</ele>
        <time>2018-09-24T11:03:26Z</time>
      </trkpt>
      <trkpt lat="49.63704" lon="4.97747">
        <ele>161.16</ele>
        <time>2018-09-24T11:03:46Z</time>
      </trkpt>
      <trkpt lat="49.63725" lon="4.97766">
        <ele>161.16</ele>
        <time>2018-09-24T11:04:07Z</time>
      </trkpt>
      <trkpt lat="49.63749" lon="4.97785">
        <ele>161.16</ele>
        <time>2018-09-24T11:04:32Z</time>
      </trkpt>
      <trkpt lat="49.6377" lon="4.97797">
        <ele>161.64</ele>
        <time>2018-09-24T11:04:54Z</time>
      </trkpt>
      <trkpt lat="49.63786" lon="4.97814">
        <ele>161.16</ele>
        <time>2018-09-24T11:05:16Z</time>
      </trkpt>
      <trkpt lat="49.63802" lon="4.97834">
        <ele>163.56</ele>
        <time>2018-09-24T11:05:37Z</time>
      </trkpt>
      <trkpt lat="49.63826" lon="4.97857">
        <ele>167.89</ele>
        <time>2018-09-24T11:06:00Z</time>
      </trkpt>
      <trkpt lat="49.63859" lon="4.97887">
        <ele>168.85</ele>
        <time>2018-09-24T11:06:26Z</time>
      </trkpt>
      <trkpt lat="49.63882" lon="4.97906">
        <ele>165.96</ele>
        <time>2018-09-24T11:06:51Z</time>
      </trkpt>
      <trkpt lat="49.639" lon="4.97922">
        <ele>165.48</ele>
        <time>2018-09-24T11:07:12Z</time>
      </trkpt>
      <trkpt lat="49.63921" lon="4.9794">
        <ele>162.12</ele>
        <time>2018-09-24T11:07:29Z</time>
      </trkpt>
      <trkpt lat="49.63943" lon="4.97964">
        <ele>161.16</ele>
        <time>2018-09-24T11:07:50Z</time>
      </trkpt>
      <trkpt lat="49.63963" lon="4.97984">
        <ele>158.75</ele>
        <time>2018-09-24T11:08:12Z</time>
      </trkpt>
      <trkpt lat="49.63983" lon="4.97999">
        <ele>157.31</ele>
        <time>2018-09-24T11:08:33Z</time>
      </trkpt>
      <trkpt lat="49.64003" lon="4.9802">
        <ele>159.72</ele>
        <time>2018-09-24T11:08:54Z</time>
      </trkpt>
      <trkpt lat="49.64028" lon="4.98044">
        <ele>161.64</ele>
        <time>2018-09-24T11:09:16Z</time>
      </trkpt>
      <trkpt lat="49.64035" lon="4.98049">
        <ele>162.6</ele>
        <time>2018-09-24T11:09:37Z</time>
      </trkpt>
      <trkpt lat="49.64053" lon="4.98068">
        <ele>162.12</ele>
        <time>2018-09-24T11:09:59Z</time>
      </trkpt>
      <trkpt lat="49.64073" lon="4.98086">
        <ele>161.16</ele>
        <time>2018-09-24T11:10:20Z</time>
      </trkpt>
      <trkpt lat="49.64092" lon="4.98105">
        <ele>162.6</ele>
        <time>2018-09-24T11:10:40Z</time>
      </trkpt>
      <trkpt lat="49.64112" lon="4.98122">
        <ele>163.08</ele>
        <time>2018-09-24T11:11:01Z</time>
      </trkpt>
      <trkpt lat="49.64132" lon="4.98144">
        <ele>164.04</ele>
        <time>2018-09-24T11:11:21Z</time>
      </trkpt>
      <trkpt lat="49.64153" lon="4.98165">
        <ele>161.64</ele>
        <time>2018-09-24T11:11:39Z</time>
      </trkpt>
      <trkpt lat="49.64167" lon="4.98178">
        <ele>158.27</ele>
        <time>2018-09-24T11:11:58Z</time>
      </trkpt>
      <trkpt lat="49.64188" lon="4.98198">
        <ele>151.54</ele>
        <time>2018-09-24T11:12:21Z</time>
      </trkpt>
      <trkpt lat="49.64208" lon="4.98214">
        <ele>151.06</ele>
        <time>2018-09-24T11:12:40Z</time>
      </trkpt>
      <trkpt lat="49.64226" lon="4.98227">
        <ele>150.58</ele>
        <time>2018-09-24T11:13:02Z</time>
      </trkpt>
      <trkpt lat="49.64239" lon="4.98238">
        <ele>151.54</ele>
        <time>2018-09-24T11:13:17Z</time>
      </trkpt>
      <trkpt lat="49.64256" lon="4.98255">
        <ele>152.51</ele>
        <time>2018-09-24T11:13:35Z</time>
      </trkpt>
      <trkpt lat="49.64277" lon="4.9827">
        <ele>155.87</ele>
        <time>2018-09-24T11:13:55Z</time>
      </trkpt>
      <trkpt lat="49.64298" lon="4.98292">
        <ele>157.31</ele>
        <time>2018-09-24T11:14:16Z</time>
      </trkpt>
      <trkpt lat="49.64318" lon="4.9831">
        <ele>157.31</ele>
        <time>2018-09-24T11:14:37Z</time>
      </trkpt>
      <trkpt lat="49.64339" lon="4.98327">
        <ele>154.91</ele>
        <time>2018-09-24T11:14:58Z</time>
      </trkpt>
      <trkpt lat="49.6436" lon="4.98345">
        <ele>156.35</ele>
        <time>2018-09-24T11:15:15Z</time>
      </trkpt>
      <trkpt lat="49.64384" lon="4.98363">
        <ele>158.27</ele>
        <time>2018-09-24T11:15:37Z</time>
      </trkpt>
      <trkpt lat="49.64409" lon="4.98381">
        <ele>156.35</ele>
        <time>2018-09-24T11:16:00Z</time>
      </trkpt>
      <trkpt lat="49.64426" lon="4.9839">
        <ele>153.47</ele>
        <time>2018-09-24T11:16:17Z</time>
      </trkpt>
      <trkpt lat="49.64449" lon="4.98403">
        <ele>150.1</ele>
        <time>2018-09-24T11:16:38Z</time>
      </trkpt>
      <trkpt lat="49.64468" lon="4.98416">
        <ele>146.26</ele>
        <time>2018-09-24T11:16:56Z</time>
      </trkpt>
      <trkpt lat="49.64496" lon="4.98436">
        <ele>145.78</ele>
        <time>2018-09-24T11:17:18Z</time>
      </trkpt>
      <trkpt lat="49.64521" lon="4.98448">
        <ele>144.34</ele>
        <time>2018-09-24T11:17:38Z</time>
      </trkpt>
      <trkpt lat="49.64545" lon="4.98465">
        <ele>147.7</ele>
        <time>2018-09-24T11:17:58Z</time>
      </trkpt>
      <trkpt lat="49.64564" lon="4.98472">
        <ele>145.3</ele>
        <time>2018-09-24T11:18:16Z</time>
      </trkpt>
      <trkpt lat="49.64581" lon="4.98478">
        <ele>142.89</ele>
        <time>2018-09-24T11:18:33Z</time>
      </trkpt>
      <trkpt lat="49.64593" lon="4.98488">
        <ele>143.37</ele>
        <time>2018-09-24T11:18:48Z</time>
      </trkpt>
      <trkpt lat="49.64605" lon="4.98495">
        <ele>147.22</ele>
        <time>2018-09-24T11:19:04Z</time>
      </trkpt>
      <trkpt lat="49.64611" lon="4.98498">
        <ele>151.06</ele>
        <time>2018-09-24T11:19:21Z</time>
      </trkpt>
      <trkpt lat="49.64624" lon="4.98506">
        <ele>151.06</ele>
        <time>2018-09-24T11:19:41Z</time>
      </trkpt>
      <trkpt lat="49.64646" lon="4.98518">
        <ele>152.03</ele>
        <time>2018-09-24T11:20:00Z</time>
      </trkpt>
      <trkpt lat="49.64666" lon="4.98533">
        <ele>154.43</ele>
        <time>2018-09-24T11:20:20Z</time>
      </trkpt>
      <trkpt lat="49.6468" lon="4.98541">
        <ele>155.39</ele>
        <time>2018-09-24T11:20:34Z</time>
      </trkpt>
      <trkpt lat="49.64705" lon="4.98553">
        <ele>157.31</ele>
        <time>2018-09-24T11:20:52Z</time>
      </trkpt>
      <trkpt lat="49.64724" lon="4.98566">
        <ele>157.79</ele>
        <time>2018-09-24T11:21:12Z</time>
      </trkpt>
      <trkpt lat="49.64744" lon="4.98577">
        <ele>157.31</ele>
        <time>2018-09-24T11:21:30Z</time>
      </trkpt>
      <trkpt lat="49.64764" lon="4.98586">
        <ele>157.31</ele>
        <time>2018-09-24T11:21:46Z</time>
      </trkpt>
      <trkpt lat="49.64784" lon="4.98594">
        <ele>161.16</ele>
        <time>2018-09-24T11:22:02Z</time>
      </trkpt>
      <trkpt lat="49.64806" lon="4.98607">
        <ele>162.6</ele>
        <time>2018-09-24T11:22:21Z</time>
      </trkpt>
      <trkpt lat="49.64828" lon="4.98622">
        <ele>161.16</ele>
        <time>2018-09-24T11:22:40Z</time>
      </trkpt>
      <trkpt lat="49.6485" lon="4.98634">
        <ele>159.24</ele>
        <time>2018-09-24T11:22:59Z</time>
      </trkpt>
      <trkpt lat="49.64869" lon="4.98646">
        <ele>160.2</ele>
        <time>2018-09-24T11:23:15Z</time>
      </trkpt>
      <trkpt lat="49.64891" lon="4.9866">
        <ele>160.68</ele>
        <time>2018-09-24T11:23:36Z</time>
      </trkpt>
      <trkpt lat="49.64902" lon="4.98671">
        <ele>159.72</ele>
        <time>2018-09-24T11:23:52Z</time>
      </trkpt>
      <trkpt lat="49.64909" lon="4.98675">
        <ele>158.75</ele>
        <time>2018-09-24T11:24:08Z</time>
      </trkpt>
      <trkpt lat="49.64914" lon="4.98677">
        <ele>158.75</ele>
        <time>2018-09-24T11:24:12Z</time>
      </trkpt>
      <trkpt lat="49.6492" lon="4.9868">
        <ele>159.24</ele>
        <time>2018-09-24T11:24:17Z</time>
      </trkpt>
      <trkpt lat="49.64941" lon="4.98691">
        <ele>158.27</ele>
        <time>2018-09-24T11:24:36Z</time>
      </trkpt>
      <trkpt lat="49.64962" lon="4.98711">
        <ele>158.75</ele>
        <time>2018-09-24T11:24:55Z</time>
      </trkpt>
      <trkpt lat="49.64981" lon="4.98729">
        <ele>159.72</ele>
        <time>2018-09-24T11:25:13Z</time>
      </trkpt>
      <trkpt lat="49.64998" lon="4.98742">
        <ele>162.12</ele>
        <time>2018-09-24T11:25:31Z</time>
      </trkpt>
      <trkpt lat="49.65" lon="4.98744">
        <ele>162.12</ele>
        <time>2018-09-24T11:25:34Z</time>
      </trkpt>
      <trkpt lat="49.65018" lon="4.98763">
        <ele>157.31</ele>
        <time>2018-09-24T11:25:56Z</time>
      </trkpt>
      <trkpt lat="49.65037" lon="4.98779">
        <ele>155.87</ele>
        <time>2018-09-24T11:26:13Z</time>
      </trkpt>
      <trkpt lat="49.65056" lon="4.98796">
        <ele>155.39</ele>
        <time>2018-09-24T11:26:30Z</time>
      </trkpt>
      <trkpt lat="49.65075" lon="4.98816">
        <ele>158.27</ele>
        <time>2018-09-24T11:26:49Z</time>
      </trkpt>
      <trkpt lat="49.65089" lon="4.9883">
        <ele>158.75</ele>
        <time>2018-09-24T11:27:04Z</time>
      </trkpt>
      <trkpt lat="49.65109" lon="4.98849">
        <ele>160.2</ele>
        <time>2018-09-24T11:27:22Z</time>
      </trkpt>
      <trkpt lat="49.65129" lon="4.98868">
        <ele>165</ele>
        <time>2018-09-24T11:27:39Z</time>
      </trkpt>
      <trkpt lat="49.65141" lon="4.98874">
        <ele>167.89</ele>
        <time>2018-09-24T11:27:54Z</time>
      </trkpt>
      <trkpt lat="49.65154" lon="4.98892">
        <ele>168.37</ele>
        <time>2018-09-24T11:28:11Z</time>
      </trkpt>
      <trkpt lat="49.6517" lon="4.98902">
        <ele>165.48</ele>
        <time>2018-09-24T11:28:28Z</time>
      </trkpt>
      <trkpt lat="49.6519" lon="4.98927">
        <ele>158.27</ele>
        <time>2018-09-24T11:28:47Z</time>
      </trkpt>
      <trkpt lat="49.65203" lon="4.98941">
        <ele>156.35</ele>
        <time>2018-09-24T11:29:00Z</time>
      </trkpt>
      <trkpt lat="49.65221" lon="4.98959">
        <ele>156.35</ele>
        <time>2018-09-24T11:29:16Z</time>
      </trkpt>
      <trkpt lat="49.65247" lon="4.98979">
        <ele>158.27</ele>
        <time>2018-09-24T11:29:38Z</time>
      </trkpt>
      <trkpt lat="49.65264" lon="4.98997">
        <ele>159.72</ele>
        <time>2018-09-24T11:29:55Z</time>
      </trkpt>
      <trkpt lat="49.65285" lon="4.99014">
        <ele>157.79</ele>
        <time>2018-09-24T11:30:13Z</time>
      </trkpt>
      <trkpt lat="49.653" lon="4.99027">
        <ele>155.39</ele>
        <time>2018-09-24T11:30:28Z</time>
      </trkpt>
      <trkpt lat="49.65318" lon="4.99044">
        <ele>152.51</ele>
        <time>2018-09-24T11:30:48Z</time>
      </trkpt>
      <trkpt lat="49.65322" lon="4.99054">
        <ele>152.99</ele>
        <time>2018-09-24T11:31:01Z</time>
      </trkpt>
      <trkpt lat="49.65324" lon="4.99062">
        <ele>152.51</ele>
        <time>2018-09-24T11:31:06Z</time>
      </trkpt>
      <trkpt lat="49.6533" lon="4.99085">
        <ele>149.62</ele>
        <time>2018-09-24T11:31:21Z</time>
      </trkpt>
      <trkpt lat="49.6534" lon="4.9912">
        <ele>149.14</ele>
        <time>2018-09-24T11:31:40Z</time>
      </trkpt>
      <trkpt lat="49.65353" lon="4.99143">
        <ele>149.14</ele>
        <time>2018-09-24T11:31:57Z</time>
      </trkpt>
      <trkpt lat="49.65367" lon="4.99166">
        <ele>147.22</ele>
        <time>2018-09-24T11:32:16Z</time>
      </trkpt>
      <trkpt lat="49.65373" lon="4.99177">
        <ele>147.22</ele>
        <time>2018-09-24T11:32:24Z</time>
      </trkpt>
      <trkpt lat="49.6537" lon="4.99188">
        <ele>147.22</ele>
        <time>2018-09-24T11:32:31Z</time>
      </trkpt>
      <trkpt lat="49.65367" lon="4.99196">
        <ele>147.7</ele>
        <time>2018-09-24T11:32:37Z</time>
      </trkpt>
      <trkpt lat="49.65376" lon="4.99198">
        <ele>149.14</ele>
        <time>2018-09-24T11:32:44Z</time>
      </trkpt>
      <trkpt lat="49.65384" lon="4.99193">
        <ele>149.62</ele>
        <time>2018-09-24T11:32:52Z</time>
      </trkpt>
      <trkpt lat="49.65395" lon="4.99204">
        <ele>152.03</ele>
        <time>2018-09-24T11:33:07Z</time>
      </trkpt>
      <trkpt lat="49.65399" lon="4.9921">
        <ele>152.03</ele>
        <time>2018-09-24T11:33:21Z</time>
      </trkpt>
      <trkpt lat="49.65415" lon="4.9924">
        <ele>157.79</ele>
        <time>2018-09-24T11:33:40Z</time>
      </trkpt>
      <trkpt lat="49.65435" lon="4.99269">
        <ele>161.16</ele>
        <time>2018-09-24T11:34:03Z</time>
      </trkpt>
      <trkpt lat="49.65454" lon="4.99288">
        <ele>155.87</ele>
        <time>2018-09-24T11:34:22Z</time>
      </trkpt>
      <trkpt lat="49.65471" lon="4.99268">
        <ele>152.03</ele>
        <time>2018-09-24T11:34:39Z</time>
      </trkpt>
      <trkpt lat="49.65472" lon="4.99265">
        <ele>151.54</ele>
        <time>2018-09-24T11:34:41Z</time>
      </trkpt>
      <trkpt lat="49.65475" lon="4.99256">
        <ele>151.06</ele>
        <time>2018-09-24T11:34:46Z</time>
      </trkpt>
      <trkpt lat="49.65486" lon="4.99225">
        <ele>150.58</ele>
        <time>2018-09-24T11:35:05Z</time>
      </trkpt>
      <trkpt lat="49.65495" lon="4.99198">
        <ele>149.62</ele>
        <time>2018-09-24T11:35:23Z</time>
      </trkpt>
      <trkpt lat="49.65518" lon="4.99209">
        <ele>149.62</ele>
        <time>2018-09-24T11:35:42Z</time>
      </trkpt>
      <trkpt lat="49.65532" lon="4.9922">
        <ele>149.62</ele>
        <time>2018-09-24T11:35:57Z</time>
      </trkpt>
      <trkpt lat="49.65535" lon="4.99223">
        <ele>150.1</ele>
        <time>2018-09-24T11:36:00Z</time>
      </trkpt>
      <trkpt lat="49.65555" lon="4.99239">
        <ele>149.62</ele>
        <time>2018-09-24T11:36:20Z</time>
      </trkpt>
      <trkpt lat="49.65557" lon="4.99253">
        <ele>148.18</ele>
        <time>2018-09-24T11:36:30Z</time>
      </trkpt>
      <trkpt lat="49.65542" lon="4.99278">
        <ele>148.66</ele>
        <time>2018-09-24T11:36:49Z</time>
      </trkpt>
      <trkpt lat="49.65531" lon="4.99298">
        <ele>148.66</ele>
        <time>2018-09-24T11:37:04Z</time>
      </trkpt>
      <trkpt lat="49.65525" lon="4.99311">
        <ele>150.58</ele>
        <time>2018-09-24T11:37:18Z</time>
      </trkpt>
      <trkpt lat="49.65509" lon="4.99333">
        <ele>154.91</ele>
        <time>2018-09-24T11:37:35Z</time>
      </trkpt>
      <trkpt lat="49.65492" lon="4.99363">
        <ele>158.27</ele>
        <time>2018-09-24T11:37:56Z</time>
      </trkpt>
      <trkpt lat="49.65473" lon="4.99395">
        <ele>158.75</ele>
        <time>2018-09-24T11:38:19Z</time>
      </trkpt>
      <trkpt lat="49.65457" lon="4.99424">
        <ele>157.31</ele>
        <time>2018-09-24T11:38:39Z</time>
      </trkpt>
      <trkpt lat="49.65451" lon="4.99439">
        <ele>156.83</ele>
        <time>2018-09-24T11:38:52Z</time>
      </trkpt>
      <trkpt lat="49.6544" lon="4.99459">
        <ele>154.43</ele>
        <time>2018-09-24T11:39:06Z</time>
      </trkpt>
      <trkpt lat="49.65423" lon="4.99483">
        <ele>150.58</ele>
        <time>2018-09-24T11:39:24Z</time>
      </trkpt>
      <trkpt lat="49.65408" lon="4.9951">
        <ele>145.3</ele>
        <time>2018-09-24T11:39:43Z</time>
      </trkpt>
      <trkpt lat="49.65395" lon="4.99528">
        <ele>140.49</ele>
        <time>2018-09-24T11:39:58Z</time>
      </trkpt>
      <trkpt lat="49.65384" lon="4.99547">
        <ele>138.09</ele>
        <time>2018-09-24T11:40:12Z</time>
      </trkpt>
      <trkpt lat="49.65371" lon="4.99568">
        <ele>134.72</ele>
        <time>2018-09-24T11:40:27Z</time>
      </trkpt>
      <trkpt lat="49.65371" lon="4.99569">
        <ele>134.24</ele>
        <time>2018-09-24T11:40:28Z</time>
      </trkpt>
      <trkpt lat="49.65361" lon="4.99584">
        <ele>128.95</ele>
        <time>2018-09-24T11:40:41Z</time>
      </trkpt>
      <trkpt lat="49.65356" lon="4.99593">
        <ele>126.07</ele>
        <time>2018-09-24T11:40:53Z</time>
      </trkpt>
      <trkpt lat="49.65343" lon="4.99621">
        <ele>123.19</ele>
        <time>2018-09-24T11:41:12Z</time>
      </trkpt>
      <trkpt lat="49.65329" lon="4.99662">
        <ele>124.15</ele>
        <time>2018-09-24T11:41:33Z</time>
      </trkpt>
      <trkpt lat="49.65317" lon="4.99684">
        <ele>125.11</ele>
        <time>2018-09-24T11:41:48Z</time>
      </trkpt>
      <trkpt lat="49.65313" lon="4.99696">
        <ele>128.95</ele>
        <time>2018-09-24T11:42:01Z</time>
      </trkpt>
      <trkpt lat="49.65297" lon="4.99727">
        <ele>130.4</ele>
        <time>2018-09-24T11:42:20Z</time>
      </trkpt>
      <trkpt lat="49.65284" lon="4.99759">
        <ele>127.51</ele>
        <time>2018-09-24T11:42:39Z</time>
      </trkpt>
      <trkpt lat="49.65272" lon="4.99789">
        <ele>125.11</ele>
        <time>2018-09-24T11:42:58Z</time>
      </trkpt>
      <trkpt lat="49.65263" lon="4.99809">
        <ele>121.74</ele>
        <time>2018-09-24T11:43:14Z</time>
      </trkpt>
      <trkpt lat="49.65249" lon="4.99835">
        <ele>116.94</ele>
        <time>2018-09-24T11:43:32Z</time>
      </trkpt>
      <trkpt lat="49.65236" lon="4.99854">
        <ele>115.98</ele>
        <time>2018-09-24T11:43:46Z</time>
      </trkpt>
      <trkpt lat="49.65223" lon="4.99873">
        <ele>121.74</ele>
        <time>2018-09-24T11:44:02Z</time>
      </trkpt>
      <trkpt lat="49.6522" lon="4.99875">
        <ele>129.43</ele>
        <time>2018-09-24T11:44:16Z</time>
      </trkpt>
      <trkpt lat="49.65218" lon="4.99879">
        <ele>130.4</ele>
        <time>2018-09-24T11:44:19Z</time>
      </trkpt>
      <trkpt lat="49.65222" lon="4.9989">
        <ele>135.2</ele>
        <time>2018-09-24T11:44:32Z</time>
      </trkpt>
      <trkpt lat="49.65222" lon="4.9989">
        <ele>139.05</ele>
        <time>2018-09-24T11:44:48Z</time>
      </trkpt>
      <trkpt lat="49.65221" lon="4.9989">
        <ele>140.01</ele>
        <time>2018-09-24T11:45:10Z</time>
      </trkpt>
      <trkpt lat="49.65227" lon="4.99898">
        <ele>143.37</ele>
        <time>2018-09-24T11:45:29Z</time>
      </trkpt>
      <trkpt lat="49.65248" lon="4.99923">
        <ele>147.22</ele>
        <time>2018-09-24T11:45:50Z</time>
      </trkpt>
      <trkpt lat="49.65263" lon="4.99945">
        <ele>150.58</ele>
        <time>2018-09-24T11:46:07Z</time>
      </trkpt>
      <trkpt lat="49.65263" lon="4.99945">
        <ele>150.58</ele>
        <time>2018-09-24T11:46:22Z</time>
      </trkpt>
      <trkpt lat="49.65263" lon="4.99947">
        <ele>151.06</ele>
        <time>2018-09-24T11:46:24Z</time>
      </trkpt>
      <trkpt lat="49.65267" lon="4.99953">
        <ele>151.06</ele>
        <time>2018-09-24T11:46:29Z</time>
      </trkpt>
      <trkpt lat="49.65282" lon="4.99975">
        <ele>151.54</ele>
        <time>2018-09-24T11:46:48Z</time>
      </trkpt>
      <trkpt lat="49.65295" lon="4.99992">
        <ele>153.95</ele>
        <time>2018-09-24T11:47:04Z</time>
      </trkpt>
      <trkpt lat="49.65305" lon="5.00003">
        <ele>152.03</ele>
        <time>2018-09-24T11:47:23Z</time>
      </trkpt>
      <trkpt lat="49.65323" lon="5.0002">
        <ele>149.62</ele>
        <time>2018-09-24T11:47:42Z</time>
      </trkpt>
      <trkpt lat="49.65341" lon="5.00039">
        <ele>150.1</ele>
        <time>2018-09-24T11:47:59Z</time>
      </trkpt>
      <trkpt lat="49.65364" lon="5.00064">
        <ele>148.66</ele>
        <time>2018-09-24T11:48:19Z</time>
      </trkpt>
      <trkpt lat="49.65386" lon="5.0009">
        <ele>147.7</ele>
        <time>2018-09-24T11:48:40Z</time>
      </trkpt>
      <trkpt lat="49.65407" lon="5.00111">
        <ele>145.3</ele>
        <time>2018-09-24T11:49:01Z</time>
      </trkpt>
      <trkpt lat="49.65409" lon="5.00116">
        <ele>145.3</ele>
        <time>2018-09-24T11:49:05Z</time>
      </trkpt>
      <trkpt lat="49.65416" lon="5.00148">
        <ele>148.18</ele>
        <time>2018-09-24T11:49:23Z</time>
      </trkpt>
      <trkpt lat="49.65425" lon="5.0017">
        <ele>148.66</ele>
        <time>2018-09-24T11:49:40Z</time>
      </trkpt>
      <trkpt lat="49.6544" lon="5.00196">
        <ele>146.26</ele>
        <time>2018-09-24T11:49:59Z</time>
      </trkpt>
      <trkpt lat="49.65456" lon="5.00232">
        <ele>145.78</ele>
        <time>2018-09-24T11:50:20Z</time>
      </trkpt>
      <trkpt lat="49.65474" lon="5.0027">
        <ele>148.66</ele>
        <time>2018-09-24T11:50:43Z</time>
      </trkpt>
      <trkpt lat="49.65487" lon="5.00303">
        <ele>147.22</ele>
        <time>2018-09-24T11:51:04Z</time>
      </trkpt>
      <trkpt lat="49.65498" lon="5.00332">
        <ele>146.26</ele>
        <time>2018-09-24T11:51:23Z</time>
      </trkpt>
      <trkpt lat="49.65512" lon="5.00361">
        <ele>144.82</ele>
        <time>2018-09-24T11:51:43Z</time>
      </trkpt>
      <trkpt lat="49.65523" lon="5.00386">
        <ele>140.97</ele>
        <time>2018-09-24T11:52:01Z</time>
      </trkpt>
      <trkpt lat="49.65541" lon="5.00423">
        <ele>142.41</ele>
        <time>2018-09-24T11:52:26Z</time>
      </trkpt>
      <trkpt lat="49.65559" lon="5.00459">
        <ele>144.34</ele>
        <time>2018-09-24T11:52:51Z</time>
      </trkpt>
      <trkpt lat="49.65578" lon="5.005">
        <ele>144.34</ele>
        <time>2018-09-24T11:53:17Z</time>
      </trkpt>
      <trkpt lat="49.65594" lon="5.00537">
        <ele>144.82</ele>
        <time>2018-09-24T11:53:40Z</time>
      </trkpt>
      <trkpt lat="49.65609" lon="5.00572">
        <ele>144.34</ele>
        <time>2018-09-24T11:54:02Z</time>
      </trkpt>
      <trkpt lat="49.65622" lon="5.00604">
        <ele>146.26</ele>
        <time>2018-09-24T11:54:22Z</time>
      </trkpt>
      <trkpt lat="49.65631" lon="5.00637">
        <ele>145.78</ele>
        <time>2018-09-24T11:54:42Z</time>
      </trkpt>
      <trkpt lat="49.65638" lon="5.00675">
        <ele>144.34</ele>
        <time>2018-09-24T11:55:03Z</time>
      </trkpt>
      <trkpt lat="49.65641" lon="5.00711">
        <ele>143.85</ele>
        <time>2018-09-24T11:55:22Z</time>
      </trkpt>
      <trkpt lat="49.65646" lon="5.00743">
        <ele>143.85</ele>
        <time>2018-09-24T11:55:40Z</time>
      </trkpt>
      <trkpt lat="49.65647" lon="5.00754">
        <ele>144.82</ele>
        <time>2018-09-24T11:55:55Z</time>
      </trkpt>
      <trkpt lat="49.65652" lon="5.0079">
        <ele>145.3</ele>
        <time>2018-09-24T11:56:16Z</time>
      </trkpt>
      <trkpt lat="49.65657" lon="5.00824">
        <ele>143.37</ele>
        <time>2018-09-24T11:56:35Z</time>
      </trkpt>
      <trkpt lat="49.6566" lon="5.00851">
        <ele>144.82</ele>
        <time>2018-09-24T11:56:53Z</time>
      </trkpt>
      <trkpt lat="49.65661" lon="5.00865">
        <ele>145.78</ele>
        <time>2018-09-24T11:57:06Z</time>
      </trkpt>
      <trkpt lat="49.65661" lon="5.00865">
        <ele>145.78</ele>
        <time>2018-09-24T11:57:18Z</time>
      </trkpt>
      <trkpt lat="49.65663" lon="5.00871">
        <ele>145.78</ele>
        <time>2018-09-24T11:57:22Z</time>
      </trkpt>
      <trkpt lat="49.65668" lon="5.00911">
        <ele>145.3</ele>
        <time>2018-09-24T11:57:44Z</time>
      </trkpt>
      <trkpt lat="49.65671" lon="5.00951">
        <ele>146.74</ele>
        <time>2018-09-24T11:58:04Z</time>
      </trkpt>
      <trkpt lat="49.65675" lon="5.0099">
        <ele>148.66</ele>
        <time>2018-09-24T11:58:23Z</time>
      </trkpt>
      <trkpt lat="49.65678" lon="5.01027">
        <ele>149.62</ele>
        <time>2018-09-24T11:58:43Z</time>
      </trkpt>
      <trkpt lat="49.65679" lon="5.01046">
        <ele>149.14</ele>
        <time>2018-09-24T11:59:00Z</time>
      </trkpt>
      <trkpt lat="49.6568" lon="5.01059">
        <ele>149.14</ele>
        <time>2018-09-24T11:59:11Z</time>
      </trkpt>
      <trkpt lat="49.65683" lon="5.01089">
        <ele>150.58</ele>
        <time>2018-09-24T11:59:28Z</time>
      </trkpt>
      <trkpt lat="49.65685" lon="5.01121">
        <ele>152.51</ele>
        <time>2018-09-24T11:59:49Z</time>
      </trkpt>
      <trkpt lat="49.65684" lon="5.01137">
        <ele>154.43</ele>
        <time>2018-09-24T12:00:05Z</time>
      </trkpt>
      <trkpt lat="49.65684" lon="5.01139">
        <ele>154.43</ele>
        <time>2018-09-24T12:00:24Z</time>
      </trkpt>
      <trkpt lat="49.65685" lon="5.01142">
        <ele>153.47</ele>
        <time>2018-09-24T12:00:41Z</time>
      </trkpt>
      <trkpt lat="49.65688" lon="5.01166">
        <ele>152.03</ele>
        <time>2018-09-24T12:00:57Z</time>
      </trkpt>
      <trkpt lat="49.65692" lon="5.012">
        <ele>152.03</ele>
        <time>2018-09-24T12:01:14Z</time>
      </trkpt>
      <trkpt lat="49.65694" lon="5.01225">
        <ele>146.74</ele>
        <time>2018-09-24T12:01:30Z</time>
      </trkpt>
      <trkpt lat="49.65697" lon="5.01257">
        <ele>145.78</ele>
        <time>2018-09-24T12:01:45Z</time>
      </trkpt>
      <trkpt lat="49.657" lon="5.01292">
        <ele>146.26</ele>
        <time>2018-09-24T12:02:03Z</time>
      </trkpt>
      <trkpt lat="49.65703" lon="5.01326">
        <ele>147.22</ele>
        <time>2018-09-24T12:02:22Z</time>
      </trkpt>
      <trkpt lat="49.65706" lon="5.01362">
        <ele>148.66</ele>
        <time>2018-09-24T12:02:42Z</time>
      </trkpt>
      <trkpt lat="49.65708" lon="5.01393">
        <ele>148.18</ele>
        <time>2018-09-24T12:02:58Z</time>
      </trkpt>
      <trkpt lat="49.65716" lon="5.0143">
        <ele>146.74</ele>
        <time>2018-09-24T12:03:20Z</time>
      </trkpt>
      <trkpt lat="49.65718" lon="5.01438">
        <ele>147.22</ele>
        <time>2018-09-24T12:03:33Z</time>
      </trkpt>
      <trkpt lat="49.65721" lon="5.01447">
        <ele>146.74</ele>
        <time>2018-09-24T12:03:43Z</time>
      </trkpt>
      <trkpt lat="49.65731" lon="5.01481">
        <ele>148.66</ele>
        <time>2018-09-24T12:04:01Z</time>
      </trkpt>
      <trkpt lat="49.65733" lon="5.0149">
        <ele>148.66</ele>
        <time>2018-09-24T12:04:06Z</time>
      </trkpt>
      <trkpt lat="49.65738" lon="5.01521">
        <ele>150.1</ele>
        <time>2018-09-24T12:04:23Z</time>
      </trkpt>
      <trkpt lat="49.65745" lon="5.01551">
        <ele>150.58</ele>
        <time>2018-09-24T12:04:41Z</time>
      </trkpt>
      <trkpt lat="49.65755" lon="5.01577">
        <ele>149.62</ele>
        <time>2018-09-24T12:04:59Z</time>
      </trkpt>
      <trkpt lat="49.65764" lon="5.01608">
        <ele>149.62</ele>
        <time>2018-09-24T12:05:15Z</time>
      </trkpt>
      <trkpt lat="49.65776" lon="5.01634">
        <ele>149.62</ele>
        <time>2018-09-24T12:05:32Z</time>
      </trkpt>
      <trkpt lat="49.6577" lon="5.01659">
        <ele>149.62</ele>
        <time>2018-09-24T12:05:47Z</time>
      </trkpt>
      <trkpt lat="49.65747" lon="5.01677">
        <ele>149.62</ele>
        <time>2018-09-24T12:06:08Z</time>
      </trkpt>
      <trkpt lat="49.65724" lon="5.01696">
        <ele>151.06</ele>
        <time>2018-09-24T12:06:29Z</time>
      </trkpt>
      <trkpt lat="49.65702" lon="5.01716">
        <ele>150.58</ele>
        <time>2018-09-24T12:06:49Z</time>
      </trkpt>
      <trkpt lat="49.65678" lon="5.01735">
        <ele>150.58</ele>
        <time>2018-09-24T12:07:11Z</time>
      </trkpt>
      <trkpt lat="49.65666" lon="5.01745">
        <ele>151.06</ele>
        <time>2018-09-24T12:07:21Z</time>
      </trkpt>
      <trkpt lat="49.65662" lon="5.0175">
        <ele>150.58</ele>
        <time>2018-09-24T12:07:25Z</time>
      </trkpt>
      <trkpt lat="49.65641" lon="5.01772">
        <ele>150.58</ele>
        <time>2018-09-24T12:07:44Z</time>
      </trkpt>
      <trkpt lat="49.6562" lon="5.01792">
        <ele>151.06</ele>
        <time>2018-09-24T12:08:02Z</time>
      </trkpt>
      <trkpt lat="49.65598" lon="5.01811">
        <ele>151.06</ele>
        <time>2018-09-24T12:08:24Z</time>
      </trkpt>
      <trkpt lat="49.65579" lon="5.01825">
        <ele>150.1</ele>
        <time>2018-09-24T12:08:43Z</time>
      </trkpt>
      <trkpt lat="49.65558" lon="5.01852">
        <ele>150.58</ele>
        <time>2018-09-24T12:09:03Z</time>
      </trkpt>
      <trkpt lat="49.65556" lon="5.01888">
        <ele>148.66</ele>
        <time>2018-09-24T12:09:20Z</time>
      </trkpt>
      <trkpt lat="49.65552" lon="5.01926">
        <ele>148.66</ele>
        <time>2018-09-24T12:09:39Z</time>
      </trkpt>
      <trkpt lat="49.65546" lon="5.01955">
        <ele>150.1</ele>
        <time>2018-09-24T12:09:58Z</time>
      </trkpt>
      <trkpt lat="49.65542" lon="5.01966">
        <ele>150.58</ele>
        <time>2018-09-24T12:10:14Z</time>
      </trkpt>
      <trkpt lat="49.6554" lon="5.0197">
        <ele>150.58</ele>
        <time>2018-09-24T12:10:32Z</time>
      </trkpt>
      <trkpt lat="49.65537" lon="5.01995">
        <ele>150.58</ele>
        <time>2018-09-24T12:10:46Z</time>
      </trkpt>
      <trkpt lat="49.6553" lon="5.02027">
        <ele>153.47</ele>
        <time>2018-09-24T12:11:04Z</time>
      </trkpt>
      <trkpt lat="49.65522" lon="5.02061">
        <ele>156.83</ele>
        <time>2018-09-24T12:11:22Z</time>
      </trkpt>
      <trkpt lat="49.65516" lon="5.02093">
        <ele>156.83</ele>
        <time>2018-09-24T12:11:38Z</time>
      </trkpt>
      <trkpt lat="49.65508" lon="5.02125">
        <ele>156.83</ele>
        <time>2018-09-24T12:11:55Z</time>
      </trkpt>
      <trkpt lat="49.65503" lon="5.02141">
        <ele>154.43</ele>
        <time>2018-09-24T12:12:09Z</time>
      </trkpt>
      <trkpt lat="49.65495" lon="5.02164">
        <ele>152.99</ele>
        <time>2018-09-24T12:12:25Z</time>
      </trkpt>
      <trkpt lat="49.65495" lon="5.02169">
        <ele>151.54</ele>
        <time>2018-09-24T12:12:39Z</time>
      </trkpt>
      <trkpt lat="49.65486" lon="5.02197">
        <ele>152.03</ele>
        <time>2018-09-24T12:12:56Z</time>
      </trkpt>
      <trkpt lat="49.65477" lon="5.0223">
        <ele>152.99</ele>
        <time>2018-09-24T12:13:15Z</time>
      </trkpt>
      <trkpt lat="49.65468" lon="5.02256">
        <ele>152.51</ele>
        <time>2018-09-24T12:13:32Z</time>
      </trkpt>
      <trkpt lat="49.65456" lon="5.02289">
        <ele>153.47</ele>
        <time>2018-09-24T12:13:53Z</time>
      </trkpt>
      <trkpt lat="49.65445" lon="5.02322">
        <ele>152.99</ele>
        <time>2018-09-24T12:14:11Z</time>
      </trkpt>
      <trkpt lat="49.65434" lon="5.02355">
        <ele>153.47</ele>
        <time>2018-09-24T12:14:29Z</time>
      </trkpt>
      <trkpt lat="49.65424" lon="5.02384">
        <ele>154.43</ele>
        <time>2018-09-24T12:14:48Z</time>
      </trkpt>
      <trkpt lat="49.65416" lon="5.02404">
        <ele>154.43</ele>
        <time>2018-09-24T12:15:06Z</time>
      </trkpt>
      <trkpt lat="49.6541" lon="5.02421">
        <ele>152.99</ele>
        <time>2018-09-24T12:15:19Z</time>
      </trkpt>
      <trkpt lat="49.654" lon="5.02457">
        <ele>156.83</ele>
        <time>2018-09-24T12:15:38Z</time>
      </trkpt>
      <trkpt lat="49.65394" lon="5.0247">
        <ele>157.31</ele>
        <time>2018-09-24T12:15:53Z</time>
      </trkpt>
      <trkpt lat="49.65387" lon="5.02494">
        <ele>157.31</ele>
        <time>2018-09-24T12:16:07Z</time>
      </trkpt>
      <trkpt lat="49.65383" lon="5.02524">
        <ele>159.72</ele>
        <time>2018-09-24T12:16:22Z</time>
      </trkpt>
      <trkpt lat="49.65382" lon="5.02554">
        <ele>159.24</ele>
        <time>2018-09-24T12:16:39Z</time>
      </trkpt>
      <trkpt lat="49.65381" lon="5.02584">
        <ele>159.72</ele>
        <time>2018-09-24T12:16:59Z</time>
      </trkpt>
      <trkpt lat="49.65378" lon="5.02618">
        <ele>158.27</ele>
        <time>2018-09-24T12:17:18Z</time>
      </trkpt>
      <trkpt lat="49.65376" lon="5.02656">
        <ele>159.24</ele>
        <time>2018-09-24T12:17:36Z</time>
      </trkpt>
      <trkpt lat="49.65372" lon="5.02695">
        <ele>161.16</ele>
        <time>2018-09-24T12:17:57Z</time>
      </trkpt>
      <trkpt lat="49.65369" lon="5.02722">
        <ele>159.72</ele>
        <time>2018-09-24T12:18:15Z</time>
      </trkpt>
      <trkpt lat="49.65367" lon="5.02738">
        <ele>158.27</ele>
        <time>2018-09-24T12:18:32Z</time>
      </trkpt>
      <trkpt lat="49.65366" lon="5.02767">
        <ele>157.31</ele>
        <time>2018-09-24T12:18:47Z</time>
      </trkpt>
      <trkpt lat="49.65364" lon="5.02803">
        <ele>158.27</ele>
        <time>2018-09-24T12:19:05Z</time>
      </trkpt>
      <trkpt lat="49.6536" lon="5.02828">
        <ele>158.27</ele>
        <time>2018-09-24T12:19:22Z</time>
      </trkpt>
      <trkpt lat="49.65354" lon="5.02862">
        <ele>158.27</ele>
        <time>2018-09-24T12:19:40Z</time>
      </trkpt>
      <trkpt lat="49.65352" lon="5.02893">
        <ele>155.87</ele>
        <time>2018-09-24T12:19:55Z</time>
      </trkpt>
      <trkpt lat="49.65347" lon="5.02923">
        <ele>153.95</ele>
        <time>2018-09-24T12:20:15Z</time>
      </trkpt>
      <trkpt lat="49.65345" lon="5.02932">
        <ele>154.43</ele>
        <time>2018-09-24T12:20:21Z</time>
      </trkpt>
      <trkpt lat="49.65343" lon="5.02941">
        <ele>155.87</ele>
        <time>2018-09-24T12:20:26Z</time>
      </trkpt>
      <trkpt lat="49.65336" lon="5.0298">
        <ele>155.87</ele>
        <time>2018-09-24T12:20:46Z</time>
      </trkpt>
      <trkpt lat="49.65325" lon="5.03009">
        <ele>154.43</ele>
        <time>2018-09-24T12:21:04Z</time>
      </trkpt>
      <trkpt lat="49.65308" lon="5.03027">
        <ele>154.43</ele>
        <time>2018-09-24T12:21:22Z</time>
      </trkpt>
      <trkpt lat="49.65292" lon="5.0304">
        <ele>154.43</ele>
        <time>2018-09-24T12:21:41Z</time>
      </trkpt>
      <trkpt lat="49.65278" lon="5.03053">
        <ele>153.95</ele>
        <time>2018-09-24T12:21:55Z</time>
      </trkpt>
      <trkpt lat="49.65258" lon="5.03076">
        <ele>155.87</ele>
        <time>2018-09-24T12:22:14Z</time>
      </trkpt>
      <trkpt lat="49.65248" lon="5.03099">
        <ele>152.99</ele>
        <time>2018-09-24T12:22:30Z</time>
      </trkpt>
      <trkpt lat="49.65245" lon="5.03116">
        <ele>150.1</ele>
        <time>2018-09-24T12:22:43Z</time>
      </trkpt>
      <trkpt lat="49.65243" lon="5.03146">
        <ele>149.14</ele>
        <time>2018-09-24T12:22:57Z</time>
      </trkpt>
      <trkpt lat="49.6524" lon="5.03148">
        <ele>149.14</ele>
        <time>2018-09-24T12:23:14Z</time>
      </trkpt>
      <trkpt lat="49.65237" lon="5.03173">
        <ele>149.62</ele>
        <time>2018-09-24T12:23:30Z</time>
      </trkpt>
      <trkpt lat="49.65233" lon="5.03199">
        <ele>149.62</ele>
        <time>2018-09-24T12:23:47Z</time>
      </trkpt>
      <trkpt lat="49.65231" lon="5.03213">
        <ele>149.62</ele>
        <time>2018-09-24T12:23:59Z</time>
      </trkpt>
      <trkpt lat="49.65226" lon="5.03248">
        <ele>150.58</ele>
        <time>2018-09-24T12:24:18Z</time>
      </trkpt>
      <trkpt lat="49.65222" lon="5.03277">
        <ele>149.62</ele>
        <time>2018-09-24T12:24:34Z</time>
      </trkpt>
      <trkpt lat="49.65217" lon="5.03314">
        <ele>152.99</ele>
        <time>2018-09-24T12:24:54Z</time>
      </trkpt>
      <trkpt lat="49.65213" lon="5.0333">
        <ele>153.95</ele>
        <time>2018-09-24T12:25:10Z</time>
      </trkpt>
      <trkpt lat="49.65212" lon="5.03332">
        <ele>153.47</ele>
        <time>2018-09-24T12:25:27Z</time>
      </trkpt>
      <trkpt lat="49.65199" lon="5.03346">
        <ele>153.47</ele>
        <time>2018-09-24T12:25:40Z</time>
      </trkpt>
      <trkpt lat="49.65179" lon="5.03345">
        <ele>152.99</ele>
        <time>2018-09-24T12:25:58Z</time>
      </trkpt>
      <trkpt lat="49.65173" lon="5.03343">
        <ele>153.47</ele>
        <time>2018-09-24T12:26:14Z</time>
      </trkpt>
      <trkpt lat="49.6516" lon="5.03339">
        <ele>153.47</ele>
        <time>2018-09-24T12:26:29Z</time>
      </trkpt>
      <trkpt lat="49.65158" lon="5.03339">
        <ele>153.47</ele>
        <time>2018-09-24T12:26:30Z</time>
      </trkpt>
      <trkpt lat="49.65137" lon="5.03334">
        <ele>152.51</ele>
        <time>2018-09-24T12:26:48Z</time>
      </trkpt>
      <trkpt lat="49.65116" lon="5.03331">
        <ele>152.51</ele>
        <time>2018-09-24T12:27:08Z</time>
      </trkpt>
      <trkpt lat="49.65095" lon="5.03327">
        <ele>152.03</ele>
        <time>2018-09-24T12:27:26Z</time>
      </trkpt>
      <trkpt lat="49.65078" lon="5.03323">
        <ele>151.06</ele>
        <time>2018-09-24T12:27:39Z</time>
      </trkpt>
      <trkpt lat="49.65073" lon="5.03321">
        <ele>151.54</ele>
        <time>2018-09-24T12:27:43Z</time>
      </trkpt>
      <trkpt lat="49.65049" lon="5.03315">
        <ele>152.03</ele>
        <time>2018-09-24T12:28:01Z</time>
      </trkpt>
      <trkpt lat="49.65028" lon="5.03309">
        <ele>151.06</ele>
        <time>2018-09-24T12:28:18Z</time>
      </trkpt>
      <trkpt lat="49.65015" lon="5.03307">
        <ele>150.58</ele>
        <time>2018-09-24T12:28:32Z</time>
      </trkpt>
      <trkpt lat="49.65009" lon="5.03306">
        <ele>150.1</ele>
        <time>2018-09-24T12:28:37Z</time>
      </trkpt>
      <trkpt lat="49.64997" lon="5.03304">
        <ele>150.58</ele>
        <time>2018-09-24T12:28:50Z</time>
      </trkpt>
      <trkpt lat="49.64975" lon="5.03296">
        <ele>150.1</ele>
        <time>2018-09-24T12:29:08Z</time>
      </trkpt>
      <trkpt lat="49.64957" lon="5.03292">
        <ele>151.54</ele>
        <time>2018-09-24T12:29:23Z</time>
      </trkpt>
      <trkpt lat="49.64939" lon="5.03289">
        <ele>151.54</ele>
        <time>2018-09-24T12:29:39Z</time>
      </trkpt>
      <trkpt lat="49.64921" lon="5.03285">
        <ele>150.1</ele>
        <time>2018-09-24T12:29:57Z</time>
      </trkpt>
      <trkpt lat="49.64903" lon="5.03281">
        <ele>150.1</ele>
        <time>2018-09-24T12:30:13Z</time>
      </trkpt>
      <trkpt lat="49.64883" lon="5.03275">
        <ele>153.47</ele>
        <time>2018-09-24T12:30:27Z</time>
      </trkpt>
      <trkpt lat="49.64857" lon="5.03269">
        <ele>155.39</ele>
        <time>2018-09-24T12:30:47Z</time>
      </trkpt>
      <trkpt lat="49.64837" lon="5.03268">
        <ele>155.87</ele>
        <time>2018-09-24T12:31:06Z</time>
      </trkpt>
      <trkpt lat="49.64815" lon="5.03261">
        <ele>153.47</ele>
        <time>2018-09-24T12:31:25Z</time>
      </trkpt>
      <trkpt lat="49.64791" lon="5.03255">
        <ele>152.03</ele>
        <time>2018-09-24T12:31:45Z</time>
      </trkpt>
      <trkpt lat="49.6477" lon="5.03246">
        <ele>149.14</ele>
        <time>2018-09-24T12:32:03Z</time>
      </trkpt>
      <trkpt lat="49.64745" lon="5.03242">
        <ele>146.74</ele>
        <time>2018-09-24T12:32:21Z</time>
      </trkpt>
      <trkpt lat="49.64741" lon="5.0324">
        <ele>147.7</ele>
        <time>2018-09-24T12:32:24Z</time>
      </trkpt>
      <trkpt lat="49.64721" lon="5.03239">
        <ele>150.58</ele>
        <time>2018-09-24T12:32:40Z</time>
      </trkpt>
      <trkpt lat="49.64702" lon="5.03235">
        <ele>150.58</ele>
        <time>2018-09-24T12:32:58Z</time>
      </trkpt>
      <trkpt lat="49.64698" lon="5.03234">
        <ele>150.1</ele>
        <time>2018-09-24T12:33:02Z</time>
      </trkpt>
      <trkpt lat="49.64678" lon="5.03229">
        <ele>148.18</ele>
        <time>2018-09-24T12:33:18Z</time>
      </trkpt>
      <trkpt lat="49.6466" lon="5.03225">
        <ele>148.18</ele>
        <time>2018-09-24T12:33:34Z</time>
      </trkpt>
      <trkpt lat="49.64651" lon="5.03223">
        <ele>148.66</ele>
        <time>2018-09-24T12:33:43Z</time>
      </trkpt>
      <trkpt lat="49.64635" lon="5.03216">
        <ele>149.14</ele>
        <time>2018-09-24T12:33:58Z</time>
      </trkpt>
      <trkpt lat="49.64627" lon="5.03215">
        <ele>150.58</ele>
        <time>2018-09-24T12:34:13Z</time>
      </trkpt>
      <trkpt lat="49.64627" lon="5.03215">
        <ele>150.1</ele>
        <time>2018-09-24T12:34:36Z</time>
      </trkpt>
      <trkpt lat="49.64626" lon="5.03213">
        <ele>150.58</ele>
        <time>2018-09-24T12:34:59Z</time>
      </trkpt>
      <trkpt lat="49.64625" lon="5.03212">
        <ele>151.54</ele>
        <time>2018-09-24T12:35:16Z</time>
      </trkpt>
      <trkpt lat="49.64625" lon="5.03211">
        <ele>152.03</ele>
        <time>2018-09-24T12:35:40Z</time>
      </trkpt>
      <trkpt lat="49.64625" lon="5.03211">
        <ele>152.03</ele>
        <time>2018-09-24T12:35:44Z</time>
      </trkpt>
      <trkpt lat="49.64627" lon="5.03178">
        <ele>151.06</ele>
        <time>2018-09-24T12:36:03Z</time>
      </trkpt>
      <trkpt lat="49.64631" lon="5.03152">
        <ele>152.03</ele>
        <time>2018-09-24T12:36:20Z</time>
      </trkpt>
      <trkpt lat="49.64634" lon="5.03148">
        <ele>152.03</ele>
        <time>2018-09-24T12:36:23Z</time>
      </trkpt>
      <trkpt lat="49.64637" lon="5.03135">
        <ele>152.03</ele>
        <time>2018-09-24T12:36:30Z</time>
      </trkpt>
      <trkpt lat="49.64639" lon="5.03107">
        <ele>150.58</ele>
        <time>2018-09-24T12:36:47Z</time>
      </trkpt>
      <trkpt lat="49.64638" lon="5.03083">
        <ele>151.06</ele>
        <time>2018-09-24T12:37:03Z</time>
      </trkpt>
      <trkpt lat="49.64639" lon="5.03067">
        <ele>151.06</ele>
        <time>2018-09-24T12:37:18Z</time>
      </trkpt>
      <trkpt lat="49.64641" lon="5.03046">
        <ele>150.58</ele>
        <time>2018-09-24T12:37:30Z</time>
      </trkpt>
      <trkpt lat="49.64646" lon="5.03013">
        <ele>152.51</ele>
        <time>2018-09-24T12:37:49Z</time>
      </trkpt>
      <trkpt lat="49.64646" lon="5.02995">
        <ele>153.95</ele>
        <time>2018-09-24T12:38:01Z</time>
      </trkpt>
      <trkpt lat="49.64651" lon="5.02969">
        <ele>153.95</ele>
        <time>2018-09-24T12:38:20Z</time>
      </trkpt>
      <trkpt lat="49.64651" lon="5.02968">
        <ele>152.99</ele>
        <time>2018-09-24T12:38:37Z</time>
      </trkpt>
      <trkpt lat="49.6465" lon="5.02966">
        <ele>152.51</ele>
        <time>2018-09-24T12:38:53Z</time>
      </trkpt>
      <trkpt lat="49.64648" lon="5.02972">
        <ele>152.03</ele>
        <time>2018-09-24T12:39:10Z</time>
      </trkpt>
      <trkpt lat="49.64648" lon="5.02972">
        <ele>151.54</ele>
        <time>2018-09-24T12:39:20Z</time>
      </trkpt>
      <trkpt lat="49.64646" lon="5.03011">
        <ele>152.03</ele>
        <time>2018-09-24T12:39:40Z</time>
      </trkpt>
      <trkpt lat="49.64643" lon="5.03039">
        <ele>151.06</ele>
        <time>2018-09-24T12:39:58Z</time>
      </trkpt>
      <trkpt lat="49.64642" lon="5.03044">
        <ele>151.06</ele>
        <time>2018-09-24T12:40:02Z</time>
      </trkpt>
      <trkpt lat="49.64638" lon="5.0307">
        <ele>150.58</ele>
        <time>2018-09-24T12:40:16Z</time>
      </trkpt>
      <trkpt lat="49.64637" lon="5.03103">
        <ele>151.54</ele>
        <time>2018-09-24T12:40:31Z</time>
      </trkpt>
      <trkpt lat="49.64632" lon="5.03136">
        <ele>151.54</ele>
        <time>2018-09-24T12:40:50Z</time>
      </trkpt>
      <trkpt lat="49.64628" lon="5.0317">
        <ele>151.06</ele>
        <time>2018-09-24T12:41:07Z</time>
      </trkpt>
      <trkpt lat="49.64623" lon="5.03202">
        <ele>151.54</ele>
        <time>2018-09-24T12:41:23Z</time>
      </trkpt>
      <trkpt lat="49.64619" lon="5.03232">
        <ele>152.03</ele>
        <time>2018-09-24T12:41:39Z</time>
      </trkpt>
      <trkpt lat="49.64618" lon="5.03239">
        <ele>151.54</ele>
        <time>2018-09-24T12:41:52Z</time>
      </trkpt>
      <trkpt lat="49.64617" lon="5.03245">
        <ele>151.54</ele>
        <time>2018-09-24T12:42:08Z</time>
      </trkpt>
      <trkpt lat="49.64615" lon="5.03275">
        <ele>151.54</ele>
        <time>2018-09-24T12:42:25Z</time>
      </trkpt>
      <trkpt lat="49.64613" lon="5.03299">
        <ele>150.1</ele>
        <time>2018-09-24T12:42:43Z</time>
      </trkpt>
      <trkpt lat="49.64612" lon="5.03306">
        <ele>150.1</ele>
        <time>2018-09-24T12:42:47Z</time>
      </trkpt>
      <trkpt lat="49.6461" lon="5.03316">
        <ele>150.1</ele>
        <time>2018-09-24T12:42:52Z</time>
      </trkpt>
      <trkpt lat="49.64608" lon="5.03357">
        <ele>151.06</ele>
        <time>2018-09-24T12:43:12Z</time>
      </trkpt>
      <trkpt lat="49.64605" lon="5.03386">
        <ele>150.58</ele>
        <time>2018-09-24T12:43:30Z</time>
      </trkpt>
      <trkpt lat="49.646" lon="5.03418">
        <ele>150.58</ele>
        <time>2018-09-24T12:43:49Z</time>
      </trkpt>
      <trkpt lat="49.646" lon="5.03454">
        <ele>150.1</ele>
        <time>2018-09-24T12:44:07Z</time>
      </trkpt>
      <trkpt lat="49.64602" lon="5.0346">
        <ele>149.62</ele>
        <time>2018-09-24T12:44:15Z</time>
      </trkpt>
      <trkpt lat="49.646" lon="5.03466">
        <ele>149.62</ele>
        <time>2018-09-24T12:44:33Z</time>
      </trkpt>
      <trkpt lat="49.64599" lon="5.03475">
        <ele>151.06</ele>
        <time>2018-09-24T12:44:45Z</time>
      </trkpt>
      <trkpt lat="49.64594" lon="5.03507">
        <ele>152.51</ele>
        <time>2018-09-24T12:45:02Z</time>
      </trkpt>
      <trkpt lat="49.6459" lon="5.03538">
        <ele>151.06</ele>
        <time>2018-09-24T12:45:20Z</time>
      </trkpt>
      <trkpt lat="49.64587" lon="5.03572">
        <ele>152.99</ele>
        <time>2018-09-24T12:45:36Z</time>
      </trkpt>
      <trkpt lat="49.64583" lon="5.03601">
        <ele>152.51</ele>
        <time>2018-09-24T12:45:54Z</time>
      </trkpt>
      <trkpt lat="49.64577" lon="5.03623">
        <ele>152.51</ele>
        <time>2018-09-24T12:46:12Z</time>
      </trkpt>
      <trkpt lat="49.64574" lon="5.03624">
        <ele>152.51</ele>
        <time>2018-09-24T12:46:17Z</time>
      </trkpt>
      <trkpt lat="49.64569" lon="5.03628">
        <ele>152.51</ele>
        <time>2018-09-24T12:46:23Z</time>
      </trkpt>
      <trkpt lat="49.64568" lon="5.0363">
        <ele>152.51</ele>
        <time>2018-09-24T12:46:39Z</time>
      </trkpt>
      <trkpt lat="49.64565" lon="5.03628">
        <ele>152.03</ele>
        <time>2018-09-24T12:46:52Z</time>
      </trkpt>
      <trkpt lat="49.64561" lon="5.03625">
        <ele>152.03</ele>
        <time>2018-09-24T12:46:59Z</time>
      </trkpt>
      <trkpt lat="49.64558" lon="5.03609">
        <ele>152.03</ele>
        <time>2018-09-24T12:47:11Z</time>
      </trkpt>
      <trkpt lat="49.64545" lon="5.03599">
        <ele>152.51</ele>
        <time>2018-09-24T12:47:26Z</time>
      </trkpt>
      <trkpt lat="49.64544" lon="5.03598">
        <ele>152.99</ele>
        <time>2018-09-24T12:47:27Z</time>
      </trkpt>
      <trkpt lat="49.64531" lon="5.0359">
        <ele>153.47</ele>
        <time>2018-09-24T12:47:41Z</time>
      </trkpt>
      <trkpt lat="49.64529" lon="5.03589">
        <ele>153.47</ele>
        <time>2018-09-24T12:47:44Z</time>
      </trkpt>
      <trkpt lat="49.64521" lon="5.03582">
        <ele>153.47</ele>
        <time>2018-09-24T12:47:54Z</time>
      </trkpt>
      <trkpt lat="49.64516" lon="5.03579">
        <ele>152.99</ele>
        <time>2018-09-24T12:48:00Z</time>
      </trkpt>
      <trkpt lat="49.64513" lon="5.03575">
        <ele>152.51</ele>
        <time>2018-09-24T12:48:05Z</time>
      </trkpt>
      <trkpt lat="49.64504" lon="5.03568">
        <ele>151.54</ele>
        <time>2018-09-24T12:48:19Z</time>
      </trkpt>
      <trkpt lat="49.64504" lon="5.03567">
        <ele>151.54</ele>
        <time>2018-09-24T12:48:20Z</time>
      </trkpt>
      <trkpt lat="49.64501" lon="5.03562">
        <ele>151.54</ele>
        <time>2018-09-24T12:48:24Z</time>
      </trkpt>
      <trkpt lat="49.64493" lon="5.0355">
        <ele>151.54</ele>
        <time>2018-09-24T12:48:40Z</time>
      </trkpt>
      <trkpt lat="49.6448" lon="5.0355">
        <ele>150.58</ele>
        <time>2018-09-24T12:48:54Z</time>
      </trkpt>
      <trkpt lat="49.64467" lon="5.03561">
        <ele>149.62</ele>
        <time>2018-09-24T12:49:09Z</time>
      </trkpt>
      <trkpt lat="49.64452" lon="5.03569">
        <ele>149.14</ele>
        <time>2018-09-24T12:49:26Z</time>
      </trkpt>
      <trkpt lat="49.64438" lon="5.03586">
        <ele>150.1</ele>
        <time>2018-09-24T12:49:43Z</time>
      </trkpt>
      <trkpt lat="49.64432" lon="5.03594">
        <ele>150.58</ele>
        <time>2018-09-24T12:49:57Z</time>
      </trkpt>
      <trkpt lat="49.64431" lon="5.03593">
        <ele>150.58</ele>
        <time>2018-09-24T12:50:12Z</time>
      </trkpt>
      <trkpt lat="49.64425" lon="5.03598">
        <ele>151.06</ele>
        <time>2018-09-24T12:50:26Z</time>
      </trkpt>
      <trkpt lat="49.64419" lon="5.03603">
        <ele>151.54</ele>
        <time>2018-09-24T12:50:33Z</time>
      </trkpt>
      <trkpt lat="49.64416" lon="5.03605">
        <ele>152.03</ele>
        <time>2018-09-24T12:50:36Z</time>
      </trkpt>
      <trkpt lat="49.64402" lon="5.03612">
        <ele>151.54</ele>
        <time>2018-09-24T12:50:51Z</time>
      </trkpt>
      <trkpt lat="49.64397" lon="5.03617">
        <ele>152.03</ele>
        <time>2018-09-24T12:50:57Z</time>
      </trkpt>
      <trkpt lat="49.64396" lon="5.03622">
        <ele>152.03</ele>
        <time>2018-09-24T12:51:01Z</time>
      </trkpt>
      <trkpt lat="49.64389" lon="5.03629">
        <ele>152.51</ele>
        <time>2018-09-24T12:51:12Z</time>
      </trkpt>
      <trkpt lat="49.64385" lon="5.03628">
        <ele>152.51</ele>
        <time>2018-09-24T12:51:29Z</time>
      </trkpt>
      <trkpt lat="49.64373" lon="5.03627">
        <ele>153.47</ele>
        <time>2018-09-24T12:51:42Z</time>
      </trkpt>
      <trkpt lat="49.64366" lon="5.03625">
        <ele>152.99</ele>
        <time>2018-09-24T12:51:54Z</time>
      </trkpt>
      <trkpt lat="49.64353" lon="5.03622">
        <ele>153.47</ele>
        <time>2018-09-24T12:52:10Z</time>
      </trkpt>
      <trkpt lat="49.64331" lon="5.0362">
        <ele>154.43</ele>
        <time>2018-09-24T12:52:27Z</time>
      </trkpt>
      <trkpt lat="49.6431" lon="5.03615">
        <ele>155.87</ele>
        <time>2018-09-24T12:52:45Z</time>
      </trkpt>
      <trkpt lat="49.64288" lon="5.0361">
        <ele>156.35</ele>
        <time>2018-09-24T12:53:04Z</time>
      </trkpt>
      <trkpt lat="49.64279" lon="5.03609">
        <ele>154.91</ele>
        <time>2018-09-24T12:53:17Z</time>
      </trkpt>
      <trkpt lat="49.64257" lon="5.03604">
        <ele>155.39</ele>
        <time>2018-09-24T12:53:36Z</time>
      </trkpt>
      <trkpt lat="49.64238" lon="5.03605">
        <ele>152.99</ele>
        <time>2018-09-24T12:53:51Z</time>
      </trkpt>
      <trkpt lat="49.64219" lon="5.03605">
        <ele>151.54</ele>
        <time>2018-09-24T12:54:09Z</time>
      </trkpt>
      <trkpt lat="49.64201" lon="5.03606">
        <ele>151.54</ele>
        <time>2018-09-24T12:54:26Z</time>
      </trkpt>
      <trkpt lat="49.64178" lon="5.03607">
        <ele>151.54</ele>
        <time>2018-09-24T12:54:44Z</time>
      </trkpt>
      <trkpt lat="49.64172" lon="5.03606">
        <ele>151.54</ele>
        <time>2018-09-24T12:54:57Z</time>
      </trkpt>
      <trkpt lat="49.64154" lon="5.03608">
        <ele>151.06</ele>
        <time>2018-09-24T12:55:12Z</time>
      </trkpt>
      <trkpt lat="49.64147" lon="5.03607">
        <ele>150.58</ele>
        <time>2018-09-24T12:55:19Z</time>
      </trkpt>
      <trkpt lat="49.64138" lon="5.0361">
        <ele>149.14</ele>
        <time>2018-09-24T12:55:26Z</time>
      </trkpt>
      <trkpt lat="49.64117" lon="5.0361">
        <ele>149.14</ele>
        <time>2018-09-24T12:55:45Z</time>
      </trkpt>
      <trkpt lat="49.64114" lon="5.03609">
        <ele>149.14</ele>
        <time>2018-09-24T12:55:48Z</time>
      </trkpt>
      <trkpt lat="49.64096" lon="5.03612">
        <ele>149.14</ele>
        <time>2018-09-24T12:56:03Z</time>
      </trkpt>
      <trkpt lat="49.64086" lon="5.0361">
        <ele>149.62</ele>
        <time>2018-09-24T12:56:18Z</time>
      </trkpt>
      <trkpt lat="49.64077" lon="5.03611">
        <ele>149.14</ele>
        <time>2018-09-24T12:56:26Z</time>
      </trkpt>
      <trkpt lat="49.64069" lon="5.03612">
        <ele>148.66</ele>
        <time>2018-09-24T12:56:32Z</time>
      </trkpt>
      <trkpt lat="49.64048" lon="5.03612">
        <ele>149.14</ele>
        <time>2018-09-24T12:56:50Z</time>
      </trkpt>
      <trkpt lat="49.6403" lon="5.03613">
        <ele>148.18</ele>
        <time>2018-09-24T12:57:06Z</time>
      </trkpt>
      <trkpt lat="49.64014" lon="5.03617">
        <ele>147.22</ele>
        <time>2018-09-24T12:57:20Z</time>
      </trkpt>
      <trkpt lat="49.64002" lon="5.03616">
        <ele>147.7</ele>
        <time>2018-09-24T12:57:32Z</time>
      </trkpt>
      <trkpt lat="49.63996" lon="5.03615">
        <ele>147.7</ele>
        <time>2018-09-24T12:57:37Z</time>
      </trkpt>
      <trkpt lat="49.63979" lon="5.03617">
        <ele>148.18</ele>
        <time>2018-09-24T12:57:51Z</time>
      </trkpt>
      <trkpt lat="49.63964" lon="5.03608">
        <ele>149.62</ele>
        <time>2018-09-24T12:58:02Z</time>
      </trkpt>
      <trkpt lat="49.63954" lon="5.03603">
        <ele>149.62</ele>
        <time>2018-09-24T12:58:17Z</time>
      </trkpt>
      <trkpt lat="49.63953" lon="5.03603">
        <ele>148.66</ele>
        <time>2018-09-24T12:58:33Z</time>
      </trkpt>
      <trkpt lat="49.63951" lon="5.03602">
        <ele>149.14</ele>
        <time>2018-09-24T12:59:00Z</time>
      </trkpt>
      <trkpt lat="49.63951" lon="5.03601">
        <ele>148.66</ele>
        <time>2018-09-24T12:59:22Z</time>
      </trkpt>
      <trkpt lat="49.63952" lon="5.03601">
        <ele>148.66</ele>
        <time>2018-09-24T12:59:46Z</time>
      </trkpt>
      <trkpt lat="49.63952" lon="5.03599">
        <ele>149.62</ele>
        <time>2018-09-24T13:00:10Z</time>
      </trkpt>
      <trkpt lat="49.63952" lon="5.03599">
        <ele>149.62</ele>
        <time>2018-09-24T13:00:31Z</time>
      </trkpt>
      <trkpt lat="49.63952" lon="5.03598">
        <ele>149.62</ele>
        <time>2018-09-24T13:00:59Z</time>
      </trkpt>
      <trkpt lat="49.63953" lon="5.03598">
        <ele>149.14</ele>
        <time>2018-09-24T13:01:28Z</time>
      </trkpt>
      <trkpt lat="49.63953" lon="5.03598">
        <ele>149.62</ele>
        <time>2018-09-24T13:01:42Z</time>
      </trkpt>
      <trkpt lat="49.63954" lon="5.03598">
        <ele>149.14</ele>
        <time>2018-09-24T13:02:05Z</time>
      </trkpt>
      <trkpt lat="49.63954" lon="5.03599">
        <ele>148.66</ele>
        <time>2018-09-24T13:02:29Z</time>
      </trkpt>
      <trkpt lat="49.63955" lon="5.03595">
        <ele>148.18</ele>
        <time>2018-09-24T13:02:52Z</time>
      </trkpt>
      <trkpt lat="49.63956" lon="5.03593">
        <ele>148.66</ele>
        <time>2018-09-24T13:03:11Z</time>
      </trkpt>
      <trkpt lat="49.63947" lon="5.03576">
        <ele>147.7</ele>
        <time>2018-09-24T13:03:27Z</time>
      </trkpt>
      <trkpt lat="49.63947" lon="5.03575">
        <ele>147.7</ele>
        <time>2018-09-24T13:03:28Z</time>
      </trkpt>
      <trkpt lat="49.6394" lon="5.03552">
        <ele>149.62</ele>
        <time>2018-09-24T13:03:48Z</time>
      </trkpt>
      <trkpt lat="49.63939" lon="5.03547">
        <ele>150.58</ele>
        <time>2018-09-24T13:04:01Z</time>
      </trkpt>
      <trkpt lat="49.63936" lon="5.03526">
        <ele>149.62</ele>
        <time>2018-09-24T13:04:16Z</time>
      </trkpt>
      <trkpt lat="49.63931" lon="5.0351">
        <ele>150.58</ele>
        <time>2018-09-24T13:04:29Z</time>
      </trkpt>
      <trkpt lat="49.63925" lon="5.03484">
        <ele>150.58</ele>
        <time>2018-09-24T13:04:46Z</time>
      </trkpt>
      <trkpt lat="49.63919" lon="5.03452">
        <ele>151.54</ele>
        <time>2018-09-24T13:05:05Z</time>
      </trkpt>
      <trkpt lat="49.63914" lon="5.03424">
        <ele>149.14</ele>
        <time>2018-09-24T13:05:24Z</time>
      </trkpt>
      <trkpt lat="49.63907" lon="5.03387">
        <ele>150.1</ele>
        <time>2018-09-24T13:05:47Z</time>
      </trkpt>
      <trkpt lat="49.63902" lon="5.03356">
        <ele>151.06</ele>
        <time>2018-09-24T13:06:07Z</time>
      </trkpt>
      <trkpt lat="49.63899" lon="5.03348">
        <ele>150.58</ele>
        <time>2018-09-24T13:06:23Z</time>
      </trkpt>
      <trkpt lat="49.63895" lon="5.03325">
        <ele>151.54</ele>
        <time>2018-09-24T13:06:42Z</time>
      </trkpt>
      <trkpt lat="49.6389" lon="5.03301">
        <ele>151.54</ele>
        <time>2018-09-24T13:07:00Z</time>
      </trkpt>
      <trkpt lat="49.63887" lon="5.03281">
        <ele>150.58</ele>
        <time>2018-09-24T13:07:16Z</time>
      </trkpt>
      <trkpt lat="49.63881" lon="5.03254">
        <ele>150.1</ele>
        <time>2018-09-24T13:07:35Z</time>
      </trkpt>
      <trkpt lat="49.63879" lon="5.03239">
        <ele>150.58</ele>
        <time>2018-09-24T13:07:51Z</time>
      </trkpt>
      <trkpt lat="49.63874" lon="5.03214">
        <ele>150.1</ele>
        <time>2018-09-24T13:08:08Z</time>
      </trkpt>
      <trkpt lat="49.63871" lon="5.03197">
        <ele>149.14</ele>
        <time>2018-09-24T13:08:24Z</time>
      </trkpt>
      <trkpt lat="49.6387" lon="5.0319">
        <ele>149.62</ele>
        <time>2018-09-24T13:08:41Z</time>
      </trkpt>
      <trkpt lat="49.6387" lon="5.03189">
        <ele>150.1</ele>
        <time>2018-09-24T13:08:45Z</time>
      </trkpt>
      <trkpt lat="49.63872" lon="5.03197">
        <ele>149.62</ele>
        <time>2018-09-24T13:08:50Z</time>
      </trkpt>
      <trkpt lat="49.63873" lon="5.03199">
        <ele>149.62</ele>
        <time>2018-09-24T13:08:52Z</time>
      </trkpt>
      <trkpt lat="49.6388" lon="5.03176">
        <ele>149.14</ele>
        <time>2018-09-24T13:09:07Z</time>
      </trkpt>
      <trkpt lat="49.63874" lon="5.0315">
        <ele>150.58</ele>
        <time>2018-09-24T13:09:25Z</time>
      </trkpt>
      <trkpt lat="49.63862" lon="5.03137">
        <ele>151.54</ele>
        <time>2018-09-24T13:09:40Z</time>
      </trkpt>
      <trkpt lat="49.63861" lon="5.03135">
        <ele>151.54</ele>
        <time>2018-09-24T13:09:58Z</time>
      </trkpt>
      <trkpt lat="49.63861" lon="5.03136">
        <ele>151.54</ele>
        <time>2018-09-24T13:10:16Z</time>
      </trkpt>
      <trkpt lat="49.63861" lon="5.03135">
        <ele>151.54</ele>
        <time>2018-09-24T13:10:42Z</time>
      </trkpt>
      <trkpt lat="49.6386" lon="5.03134">
        <ele>152.03</ele>
        <time>2018-09-24T13:11:12Z</time>
      </trkpt>
      <trkpt lat="49.6386" lon="5.03133">
        <ele>152.03</ele>
        <time>2018-09-24T13:11:37Z</time>
      </trkpt>
      <trkpt lat="49.6386" lon="5.03133">
        <ele>152.51</ele>
        <time>2018-09-24T13:12:06Z</time>
      </trkpt>
      <trkpt lat="49.6386" lon="5.03134">
        <ele>152.03</ele>
        <time>2018-09-24T13:12:27Z</time>
      </trkpt>
      <trkpt lat="49.6386" lon="5.03135">
        <ele>151.54</ele>
        <time>2018-09-24T13:12:54Z</time>
      </trkpt>
      <trkpt lat="49.63861" lon="5.03133">
        <ele>152.03</ele>
        <time>2018-09-24T13:13:13Z</time>
      </trkpt>
      <trkpt lat="49.63864" lon="5.03112">
        <ele>152.99</ele>
        <time>2018-09-24T13:13:29Z</time>
      </trkpt>
      <trkpt lat="49.63863" lon="5.03109">
        <ele>152.99</ele>
        <time>2018-09-24T13:13:38Z</time>
      </trkpt>
      <trkpt lat="49.63866" lon="5.03096">
        <ele>153.47</ele>
        <time>2018-09-24T13:13:46Z</time>
      </trkpt>
      <trkpt lat="49.63869" lon="5.03078">
        <ele>154.43</ele>
        <time>2018-09-24T13:13:59Z</time>
      </trkpt>
      <trkpt lat="49.63873" lon="5.03063">
        <ele>153.47</ele>
        <time>2018-09-24T13:14:11Z</time>
      </trkpt>
      <trkpt lat="49.63876" lon="5.03051">
        <ele>152.51</ele>
        <time>2018-09-24T13:14:25Z</time>
      </trkpt>
      <trkpt lat="49.63876" lon="5.03049">
        <ele>152.51</ele>
        <time>2018-09-24T13:14:39Z</time>
      </trkpt>
      <trkpt lat="49.63874" lon="5.03047">
        <ele>152.03</ele>
        <time>2018-09-24T13:14:57Z</time>
      </trkpt>
      <trkpt lat="49.63874" lon="5.03046">
        <ele>151.06</ele>
        <time>2018-09-24T13:15:25Z</time>
      </trkpt>
      <trkpt lat="49.63874" lon="5.03047">
        <ele>149.62</ele>
        <time>2018-09-24T13:15:45Z</time>
      </trkpt>
      <trkpt lat="49.63874" lon="5.03047">
        <ele>149.14</ele>
        <time>2018-09-24T13:16:07Z</time>
      </trkpt>
      <trkpt lat="49.63875" lon="5.03047">
        <ele>150.1</ele>
        <time>2018-09-24T13:16:38Z</time>
      </trkpt>
      <trkpt lat="49.63874" lon="5.03047">
        <ele>150.58</ele>
        <time>2018-09-24T13:16:54Z</time>
      </trkpt>
      <trkpt lat="49.63873" lon="5.03047">
        <ele>150.58</ele>
        <time>2018-09-24T13:17:20Z</time>
      </trkpt>
      <trkpt lat="49.63873" lon="5.03046">
        <ele>151.06</ele>
        <time>2018-09-24T13:17:51Z</time>
      </trkpt>
      <trkpt lat="49.63873" lon="5.03047">
        <ele>151.54</ele>
        <time>2018-09-24T13:18:19Z</time>
      </trkpt>
      <trkpt lat="49.63873" lon="5.0305">
        <ele>152.03</ele>
        <time>2018-09-24T13:18:40Z</time>
      </trkpt>
      <trkpt lat="49.63871" lon="5.03063">
        <ele>152.51</ele>
        <time>2018-09-24T13:18:50Z</time>
      </trkpt>
      <trkpt lat="49.63871" lon="5.03081">
        <ele>152.51</ele>
        <time>2018-09-24T13:19:05Z</time>
      </trkpt>
      <trkpt lat="49.6387" lon="5.03085">
        <ele>152.51</ele>
        <time>2018-09-24T13:19:26Z</time>
      </trkpt>
      <trkpt lat="49.63869" lon="5.03085">
        <ele>153.47</ele>
        <time>2018-09-24T13:19:51Z</time>
      </trkpt>
      <trkpt lat="49.63868" lon="5.03086">
        <ele>153.47</ele>
        <time>2018-09-24T13:19:59Z</time>
      </trkpt>
      <trkpt lat="49.63869" lon="5.03104">
        <ele>153.95</ele>
        <time>2018-09-24T13:20:15Z</time>
      </trkpt>
      <trkpt lat="49.63869" lon="5.03104">
        <ele>153.47</ele>
        <time>2018-09-24T13:20:19Z</time>
      </trkpt>
      <trkpt lat="49.6387" lon="5.03105">
        <ele>153.95</ele>
        <time>2018-09-24T13:20:31Z</time>
      </trkpt>
      <trkpt lat="49.6387" lon="5.03106">
        <ele>153.95</ele>
        <time>2018-09-24T13:20:34Z</time>
      </trkpt>
      <trkpt lat="49.63869" lon="5.0312">
        <ele>152.51</ele>
        <time>2018-09-24T13:20:45Z</time>
      </trkpt>
      <trkpt lat="49.6387" lon="5.03123">
        <ele>152.51</ele>
        <time>2018-09-24T13:20:57Z</time>
      </trkpt>
      <trkpt lat="49.6387" lon="5.03143">
        <ele>152.03</ele>
        <time>2018-09-24T13:21:13Z</time>
      </trkpt>
      <trkpt lat="49.63872" lon="5.03152">
        <ele>151.54</ele>
        <time>2018-09-24T13:21:28Z</time>
      </trkpt>
      <trkpt lat="49.63873" lon="5.03169">
        <ele>151.54</ele>
        <time>2018-09-24T13:21:42Z</time>
      </trkpt>
      <trkpt lat="49.63874" lon="5.03184">
        <ele>150.58</ele>
        <time>2018-09-24T13:21:57Z</time>
      </trkpt>
      <trkpt lat="49.63875" lon="5.03185">
        <ele>150.1</ele>
        <time>2018-09-24T13:22:11Z</time>
      </trkpt>
      <trkpt lat="49.63876" lon="5.03184">
        <ele>148.66</ele>
        <time>2018-09-24T13:22:29Z</time>
      </trkpt>
      <trkpt lat="49.63876" lon="5.03184">
        <ele>147.7</ele>
        <time>2018-09-24T13:22:48Z</time>
      </trkpt>
      <trkpt lat="49.63877" lon="5.03183">
        <ele>148.18</ele>
        <time>2018-09-24T13:23:04Z</time>
      </trkpt>
      <trkpt lat="49.63876" lon="5.03183">
        <ele>148.66</ele>
        <time>2018-09-24T13:23:29Z</time>
      </trkpt>
      <trkpt lat="49.63876" lon="5.03183">
        <ele>149.14</ele>
        <time>2018-09-24T13:23:49Z</time>
      </trkpt>
      <trkpt lat="49.63876" lon="5.03183">
        <ele>149.14</ele>
        <time>2018-09-24T13:24:11Z</time>
      </trkpt>
      <trkpt lat="49.63877" lon="5.03183">
        <ele>148.18</ele>
        <time>2018-09-24T13:24:43Z</time>
      </trkpt>
      <trkpt lat="49.63877" lon="5.03183">
        <ele>148.18</ele>
        <time>2018-09-24T13:24:58Z</time>
      </trkpt>
      <trkpt lat="49.63877" lon="5.03183">
        <ele>147.7</ele>
        <time>2018-09-24T13:25:22Z</time>
      </trkpt>
      <trkpt lat="49.63877" lon="5.03184">
        <ele>148.18</ele>
        <time>2018-09-24T13:25:39Z</time>
      </trkpt>
      <trkpt lat="49.63877" lon="5.03184">
        <ele>148.66</ele>
        <time>2018-09-24T13:25:56Z</time>
      </trkpt>
      <trkpt lat="49.63876" lon="5.03184">
        <ele>149.14</ele>
        <time>2018-09-24T13:26:23Z</time>
      </trkpt>
      <trkpt lat="49.63876" lon="5.03184">
        <ele>149.62</ele>
        <time>2018-09-24T13:26:43Z</time>
      </trkpt>
      <trkpt lat="49.63877" lon="5.03185">
        <ele>149.14</ele>
        <time>2018-09-24T13:27:05Z</time>
      </trkpt>
      <trkpt lat="49.63877" lon="5.03184">
        <ele>149.62</ele>
        <time>2018-09-24T13:27:22Z</time>
      </trkpt>
      <trkpt lat="49.63876" lon="5.03183">
        <ele>150.1</ele>
        <time>2018-09-24T13:27:38Z</time>
      </trkpt>
      <trkpt lat="49.63876" lon="5.03183">
        <ele>150.58</ele>
        <time>2018-09-24T13:27:52Z</time>
      </trkpt>
      <trkpt lat="49.63877" lon="5.03183">
        <ele>149.62</ele>
        <time>2018-09-24T13:28:13Z</time>
      </trkpt>
      <trkpt lat="49.63877" lon="5.03182">
        <ele>149.62</ele>
        <time>2018-09-24T13:28:34Z</time>
      </trkpt>
      <trkpt lat="49.63876" lon="5.03182">
        <ele>150.1</ele>
        <time>2018-09-24T13:28:55Z</time>
      </trkpt>
      <trkpt lat="49.63876" lon="5.03192">
        <ele>150.58</ele>
        <time>2018-09-24T13:29:08Z</time>
      </trkpt>
      <trkpt lat="49.63874" lon="5.03199">
        <ele>151.06</ele>
        <time>2018-09-24T13:29:21Z</time>
      </trkpt>
      <trkpt lat="49.63873" lon="5.03214">
        <ele>151.06</ele>
        <time>2018-09-24T13:29:37Z</time>
      </trkpt>
      <trkpt lat="49.63873" lon="5.03215">
        <ele>150.1</ele>
        <time>2018-09-24T13:29:54Z</time>
      </trkpt>
      <trkpt lat="49.63874" lon="5.03223">
        <ele>149.62</ele>
        <time>2018-09-24T13:30:16Z</time>
      </trkpt>
      <trkpt lat="49.63877" lon="5.03234">
        <ele>148.66</ele>
        <time>2018-09-24T13:30:31Z</time>
      </trkpt>
      <trkpt lat="49.63879" lon="5.03246">
        <ele>148.66</ele>
        <time>2018-09-24T13:30:43Z</time>
      </trkpt>
      <trkpt lat="49.6388" lon="5.0325">
        <ele>149.14</ele>
        <time>2018-09-24T13:30:56Z</time>
      </trkpt>
      <trkpt lat="49.63884" lon="5.03261">
        <ele>149.14</ele>
        <time>2018-09-24T13:31:12Z</time>
      </trkpt>
      <trkpt lat="49.63889" lon="5.03287">
        <ele>150.58</ele>
        <time>2018-09-24T13:31:27Z</time>
      </trkpt>
      <trkpt lat="49.63895" lon="5.03321">
        <ele>150.1</ele>
        <time>2018-09-24T13:31:44Z</time>
      </trkpt>
      <trkpt lat="49.639" lon="5.03347">
        <ele>151.06</ele>
        <time>2018-09-24T13:32:00Z</time>
      </trkpt>
      <trkpt lat="49.639" lon="5.03346">
        <ele>150.58</ele>
        <time>2018-09-24T13:32:15Z</time>
      </trkpt>
      <trkpt lat="49.63901" lon="5.03351">
        <ele>150.1</ele>
        <time>2018-09-24T13:32:33Z</time>
      </trkpt>
      <trkpt lat="49.63901" lon="5.0335">
        <ele>150.1</ele>
        <time>2018-09-24T13:32:55Z</time>
      </trkpt>
      <trkpt lat="49.639" lon="5.03351">
        <ele>149.14</ele>
        <time>2018-09-24T13:33:15Z</time>
      </trkpt>
      <trkpt lat="49.63903" lon="5.03359">
        <ele>149.14</ele>
        <time>2018-09-24T13:33:31Z</time>
      </trkpt>
      <trkpt lat="49.63903" lon="5.03366">
        <ele>149.62</ele>
        <time>2018-09-24T13:33:41Z</time>
      </trkpt>
      <trkpt lat="49.63905" lon="5.03375">
        <ele>148.66</ele>
        <time>2018-09-24T13:34:02Z</time>
      </trkpt>
      <trkpt lat="49.63912" lon="5.03405">
        <ele>148.66</ele>
        <time>2018-09-24T13:34:20Z</time>
      </trkpt>
      <trkpt lat="49.63918" lon="5.0344">
        <ele>149.62</ele>
        <time>2018-09-24T13:34:38Z</time>
      </trkpt>
      <trkpt lat="49.63917" lon="5.03441">
        <ele>149.62</ele>
        <time>2018-09-24T13:34:55Z</time>
      </trkpt>
      <trkpt lat="49.63918" lon="5.03444">
        <ele>149.62</ele>
        <time>2018-09-24T13:35:11Z</time>
      </trkpt>
      <trkpt lat="49.63921" lon="5.0346">
        <ele>150.1</ele>
        <time>2018-09-24T13:35:23Z</time>
      </trkpt>
      <trkpt lat="49.63927" lon="5.03487">
        <ele>150.1</ele>
        <time>2018-09-24T13:35:37Z</time>
      </trkpt>
      <trkpt lat="49.63935" lon="5.03523">
        <ele>149.14</ele>
        <time>2018-09-24T13:35:57Z</time>
      </trkpt>
      <trkpt lat="49.63937" lon="5.03535">
        <ele>149.14</ele>
        <time>2018-09-24T13:36:06Z</time>
      </trkpt>
      <trkpt lat="49.63943" lon="5.03563">
        <ele>150.58</ele>
        <time>2018-09-24T13:36:26Z</time>
      </trkpt>
      <trkpt lat="49.63955" lon="5.03592">
        <ele>151.06</ele>
        <time>2018-09-24T13:36:46Z</time>
      </trkpt>
      <trkpt lat="49.63955" lon="5.03597">
        <ele>151.06</ele>
        <time>2018-09-24T13:36:50Z</time>
      </trkpt>
      <trkpt lat="49.63957" lon="5.03604">
        <ele>150.1</ele>
        <time>2018-09-24T13:37:00Z</time>
      </trkpt>
      <trkpt lat="49.63967" lon="5.03608">
        <ele>151.06</ele>
        <time>2018-09-24T13:37:13Z</time>
      </trkpt>
      <trkpt lat="49.6399" lon="5.03608">
        <ele>150.58</ele>
        <time>2018-09-24T13:37:32Z</time>
      </trkpt>
      <trkpt lat="49.64012" lon="5.03607">
        <ele>149.62</ele>
        <time>2018-09-24T13:37:49Z</time>
      </trkpt>
      <trkpt lat="49.64033" lon="5.03605">
        <ele>148.66</ele>
        <time>2018-09-24T13:38:05Z</time>
      </trkpt>
      <trkpt lat="49.64058" lon="5.03606">
        <ele>149.14</ele>
        <time>2018-09-24T13:38:25Z</time>
      </trkpt>
      <trkpt lat="49.64079" lon="5.03604">
        <ele>148.18</ele>
        <time>2018-09-24T13:38:42Z</time>
      </trkpt>
      <trkpt lat="49.64102" lon="5.03604">
        <ele>147.7</ele>
        <time>2018-09-24T13:39:03Z</time>
      </trkpt>
      <trkpt lat="49.64124" lon="5.03603">
        <ele>148.66</ele>
        <time>2018-09-24T13:39:22Z</time>
      </trkpt>
      <trkpt lat="49.64141" lon="5.03604">
        <ele>149.14</ele>
        <time>2018-09-24T13:39:41Z</time>
      </trkpt>
      <trkpt lat="49.64162" lon="5.03602">
        <ele>150.1</ele>
        <time>2018-09-24T13:39:59Z</time>
      </trkpt>
      <trkpt lat="49.64186" lon="5.036">
        <ele>151.54</ele>
        <time>2018-09-24T13:40:18Z</time>
      </trkpt>
      <trkpt lat="49.64208" lon="5.036">
        <ele>152.51</ele>
        <time>2018-09-24T13:40:37Z</time>
      </trkpt>
      <trkpt lat="49.64216" lon="5.036">
        <ele>151.54</ele>
        <time>2018-09-24T13:40:50Z</time>
      </trkpt>
      <trkpt lat="49.64237" lon="5.03599">
        <ele>152.51</ele>
        <time>2018-09-24T13:41:06Z</time>
      </trkpt>
      <trkpt lat="49.6426" lon="5.036">
        <ele>152.99</ele>
        <time>2018-09-24T13:41:25Z</time>
      </trkpt>
      <trkpt lat="49.64277" lon="5.03604">
        <ele>152.03</ele>
        <time>2018-09-24T13:41:42Z</time>
      </trkpt>
      <trkpt lat="49.64289" lon="5.03606">
        <ele>152.51</ele>
        <time>2018-09-24T13:42:02Z</time>
      </trkpt>
      <trkpt lat="49.6431" lon="5.03609">
        <ele>151.54</ele>
        <time>2018-09-24T13:42:18Z</time>
      </trkpt>
      <trkpt lat="49.64328" lon="5.03615">
        <ele>150.1</ele>
        <time>2018-09-24T13:42:38Z</time>
      </trkpt>
      <trkpt lat="49.64334" lon="5.03615">
        <ele>150.1</ele>
        <time>2018-09-24T13:42:51Z</time>
      </trkpt>
      <trkpt lat="49.64334" lon="5.03615">
        <ele>150.1</ele>
        <time>2018-09-24T13:42:53Z</time>
      </trkpt>
      <trkpt lat="49.64341" lon="5.03616">
        <ele>149.62</ele>
        <time>2018-09-24T13:42:59Z</time>
      </trkpt>
      <trkpt lat="49.64362" lon="5.0362">
        <ele>150.58</ele>
        <time>2018-09-24T13:43:16Z</time>
      </trkpt>
      <trkpt lat="49.64387" lon="5.03623">
        <ele>152.51</ele>
        <time>2018-09-24T13:43:36Z</time>
      </trkpt>
      <trkpt lat="49.6441" lon="5.03629">
        <ele>152.99</ele>
        <time>2018-09-24T13:43:55Z</time>
      </trkpt>
      <trkpt lat="49.64435" lon="5.03634">
        <ele>152.03</ele>
        <time>2018-09-24T13:44:16Z</time>
      </trkpt>
      <trkpt lat="49.64455" lon="5.03638">
        <ele>152.03</ele>
        <time>2018-09-24T13:44:33Z</time>
      </trkpt>
      <trkpt lat="49.64475" lon="5.0364">
        <ele>152.51</ele>
        <time>2018-09-24T13:44:51Z</time>
      </trkpt>
      <trkpt lat="49.64497" lon="5.03644">
        <ele>153.95</ele>
        <time>2018-09-24T13:45:09Z</time>
      </trkpt>
      <trkpt lat="49.6452" lon="5.03649">
        <ele>154.43</ele>
        <time>2018-09-24T13:45:27Z</time>
      </trkpt>
      <trkpt lat="49.64541" lon="5.03654">
        <ele>154.43</ele>
        <time>2018-09-24T13:45:46Z</time>
      </trkpt>
      <trkpt lat="49.64562" lon="5.03659">
        <ele>154.43</ele>
        <time>2018-09-24T13:46:05Z</time>
      </trkpt>
      <trkpt lat="49.64584" lon="5.03664">
        <ele>154.43</ele>
        <time>2018-09-24T13:46:24Z</time>
      </trkpt>
      <trkpt lat="49.64602" lon="5.03668">
        <ele>154.43</ele>
        <time>2018-09-24T13:46:42Z</time>
      </trkpt>
      <trkpt lat="49.64614" lon="5.03671">
        <ele>153.47</ele>
        <time>2018-09-24T13:46:58Z</time>
      </trkpt>
      <trkpt lat="49.64638" lon="5.03675">
        <ele>153.47</ele>
        <time>2018-09-24T13:47:18Z</time>
      </trkpt>
      <trkpt lat="49.64663" lon="5.0368">
        <ele>154.43</ele>
        <time>2018-09-24T13:47:38Z</time>
      </trkpt>
      <trkpt lat="49.6468" lon="5.03684">
        <ele>155.39</ele>
        <time>2018-09-24T13:47:57Z</time>
      </trkpt>
      <trkpt lat="49.64704" lon="5.03689">
        <ele>156.35</ele>
        <time>2018-09-24T13:48:17Z</time>
      </trkpt>
      <trkpt lat="49.64728" lon="5.03693">
        <ele>156.35</ele>
        <time>2018-09-24T13:48:37Z</time>
      </trkpt>
      <trkpt lat="49.64749" lon="5.03698">
        <ele>155.39</ele>
        <time>2018-09-24T13:48:56Z</time>
      </trkpt>
      <trkpt lat="49.64768" lon="5.03704">
        <ele>154.91</ele>
        <time>2018-09-24T13:49:14Z</time>
      </trkpt>
      <trkpt lat="49.64787" lon="5.03709">
        <ele>154.91</ele>
        <time>2018-09-24T13:49:31Z</time>
      </trkpt>
      <trkpt lat="49.64802" lon="5.03707">
        <ele>154.91</ele>
        <time>2018-09-24T13:49:46Z</time>
      </trkpt>
      <trkpt lat="49.6481" lon="5.0371">
        <ele>154.43</ele>
        <time>2018-09-24T13:50:05Z</time>
      </trkpt>
      <trkpt lat="49.6481" lon="5.03712">
        <ele>153.47</ele>
        <time>2018-09-24T13:50:23Z</time>
      </trkpt>
      <trkpt lat="49.6481" lon="5.03712">
        <ele>152.99</ele>
        <time>2018-09-24T13:50:48Z</time>
      </trkpt>
      <trkpt lat="49.64813" lon="5.03713">
        <ele>152.51</ele>
        <time>2018-09-24T13:51:01Z</time>
      </trkpt>
      <trkpt lat="49.64821" lon="5.03715">
        <ele>152.99</ele>
        <time>2018-09-24T13:51:16Z</time>
      </trkpt>
      <trkpt lat="49.64834" lon="5.03719">
        <ele>153.47</ele>
        <time>2018-09-24T13:51:34Z</time>
      </trkpt>
      <trkpt lat="49.64863" lon="5.03727">
        <ele>154.43</ele>
        <time>2018-09-24T13:51:56Z</time>
      </trkpt>
      <trkpt lat="49.64885" lon="5.03733">
        <ele>154.91</ele>
        <time>2018-09-24T13:52:14Z</time>
      </trkpt>
      <trkpt lat="49.64907" lon="5.03739">
        <ele>152.51</ele>
        <time>2018-09-24T13:52:33Z</time>
      </trkpt>
      <trkpt lat="49.64925" lon="5.03746">
        <ele>152.03</ele>
        <time>2018-09-24T13:52:50Z</time>
      </trkpt>
      <trkpt lat="49.64948" lon="5.03757">
        <ele>152.51</ele>
        <time>2018-09-24T13:53:10Z</time>
      </trkpt>
      <trkpt lat="49.64969" lon="5.03777">
        <ele>152.51</ele>
        <time>2018-09-24T13:53:29Z</time>
      </trkpt>
      <trkpt lat="49.6499" lon="5.03801">
        <ele>152.99</ele>
        <time>2018-09-24T13:53:49Z</time>
      </trkpt>
      <trkpt lat="49.65009" lon="5.03824">
        <ele>151.54</ele>
        <time>2018-09-24T13:54:09Z</time>
      </trkpt>
      <trkpt lat="49.65026" lon="5.03845">
        <ele>151.06</ele>
        <time>2018-09-24T13:54:28Z</time>
      </trkpt>
      <trkpt lat="49.65041" lon="5.03873">
        <ele>152.03</ele>
        <time>2018-09-24T13:54:47Z</time>
      </trkpt>
      <trkpt lat="49.65056" lon="5.03899">
        <ele>153.47</ele>
        <time>2018-09-24T13:55:06Z</time>
      </trkpt>
      <trkpt lat="49.65066" lon="5.03918">
        <ele>153.95</ele>
        <time>2018-09-24T13:55:23Z</time>
      </trkpt>
      <trkpt lat="49.65076" lon="5.03946">
        <ele>154.91</ele>
        <time>2018-09-24T13:55:40Z</time>
      </trkpt>
      <trkpt lat="49.65079" lon="5.03964">
        <ele>154.43</ele>
        <time>2018-09-24T13:55:50Z</time>
      </trkpt>
      <trkpt lat="49.65078" lon="5.03967">
        <ele>154.43</ele>
        <time>2018-09-24T13:55:52Z</time>
      </trkpt>
      <trkpt lat="49.65079" lon="5.04005">
        <ele>153.95</ele>
        <time>2018-09-24T13:56:12Z</time>
      </trkpt>
      <trkpt lat="49.65078" lon="5.04035">
        <ele>153.47</ele>
        <time>2018-09-24T13:56:28Z</time>
      </trkpt>
      <trkpt lat="49.65078" lon="5.04039">
        <ele>153.47</ele>
        <time>2018-09-24T13:56:30Z</time>
      </trkpt>
      <trkpt lat="49.65087" lon="5.04041">
        <ele>153.47</ele>
        <time>2018-09-24T13:56:40Z</time>
      </trkpt>
      <trkpt lat="49.65098" lon="5.04008">
        <ele>154.91</ele>
        <time>2018-09-24T13:56:58Z</time>
      </trkpt>
      <trkpt lat="49.65106" lon="5.03977">
        <ele>154.91</ele>
        <time>2018-09-24T13:57:16Z</time>
      </trkpt>
      <trkpt lat="49.65115" lon="5.03942">
        <ele>156.35</ele>
        <time>2018-09-24T13:57:33Z</time>
      </trkpt>
      <trkpt lat="49.6512" lon="5.03921">
        <ele>155.87</ele>
        <time>2018-09-24T13:57:46Z</time>
      </trkpt>
      <trkpt lat="49.65121" lon="5.03911">
        <ele>156.35</ele>
        <time>2018-09-24T13:57:52Z</time>
      </trkpt>
      <trkpt lat="49.65123" lon="5.03899">
        <ele>156.83</ele>
        <time>2018-09-24T13:57:58Z</time>
      </trkpt>
      <trkpt lat="49.6513" lon="5.0386">
        <ele>155.87</ele>
        <time>2018-09-24T13:58:17Z</time>
      </trkpt>
      <trkpt lat="49.65136" lon="5.0382">
        <ele>155.39</ele>
        <time>2018-09-24T13:58:37Z</time>
      </trkpt>
      <trkpt lat="49.65141" lon="5.03789">
        <ele>157.31</ele>
        <time>2018-09-24T13:58:53Z</time>
      </trkpt>
      <trkpt lat="49.65147" lon="5.03758">
        <ele>158.75</ele>
        <time>2018-09-24T13:59:13Z</time>
      </trkpt>
      <trkpt lat="49.65153" lon="5.03721">
        <ele>157.31</ele>
        <time>2018-09-24T13:59:30Z</time>
      </trkpt>
      <trkpt lat="49.65159" lon="5.03686">
        <ele>156.83</ele>
        <time>2018-09-24T13:59:49Z</time>
      </trkpt>
      <trkpt lat="49.65161" lon="5.03674">
        <ele>156.35</ele>
        <time>2018-09-24T13:59:57Z</time>
      </trkpt>
      <trkpt lat="49.65167" lon="5.03642">
        <ele>157.31</ele>
        <time>2018-09-24T14:00:12Z</time>
      </trkpt>
      <trkpt lat="49.65172" lon="5.03611">
        <ele>156.83</ele>
        <time>2018-09-24T14:00:29Z</time>
      </trkpt>
      <trkpt lat="49.65176" lon="5.03596">
        <ele>156.83</ele>
        <time>2018-09-24T14:00:39Z</time>
      </trkpt>
      <trkpt lat="49.65183" lon="5.03562">
        <ele>156.83</ele>
        <time>2018-09-24T14:00:55Z</time>
      </trkpt>
      <trkpt lat="49.65188" lon="5.03526">
        <ele>158.27</ele>
        <time>2018-09-24T14:01:13Z</time>
      </trkpt>
      <trkpt lat="49.65191" lon="5.03512">
        <ele>157.31</ele>
        <time>2018-09-24T14:01:22Z</time>
      </trkpt>
      <trkpt lat="49.65193" lon="5.03504">
        <ele>156.83</ele>
        <time>2018-09-24T14:01:26Z</time>
      </trkpt>
      <trkpt lat="49.65198" lon="5.03462">
        <ele>156.83</ele>
        <time>2018-09-24T14:01:45Z</time>
      </trkpt>
      <trkpt lat="49.652" lon="5.03456">
        <ele>156.35</ele>
        <time>2018-09-24T14:01:49Z</time>
      </trkpt>
      <trkpt lat="49.65205" lon="5.03417">
        <ele>153.95</ele>
        <time>2018-09-24T14:02:11Z</time>
      </trkpt>
      <trkpt lat="49.6521" lon="5.03375">
        <ele>154.91</ele>
        <time>2018-09-24T14:02:30Z</time>
      </trkpt>
      <trkpt lat="49.65213" lon="5.03337">
        <ele>154.43</ele>
        <time>2018-09-24T14:02:50Z</time>
      </trkpt>
      <trkpt lat="49.6522" lon="5.03303">
        <ele>155.39</ele>
        <time>2018-09-24T14:03:11Z</time>
      </trkpt>
      <trkpt lat="49.65225" lon="5.03269">
        <ele>156.35</ele>
        <time>2018-09-24T14:03:27Z</time>
      </trkpt>
      <trkpt lat="49.65231" lon="5.03232">
        <ele>155.39</ele>
        <time>2018-09-24T14:03:47Z</time>
      </trkpt>
      <trkpt lat="49.65236" lon="5.03194">
        <ele>156.83</ele>
        <time>2018-09-24T14:04:07Z</time>
      </trkpt>
      <trkpt lat="49.65241" lon="5.03152">
        <ele>155.39</ele>
        <time>2018-09-24T14:04:27Z</time>
      </trkpt>
      <trkpt lat="49.65245" lon="5.03121">
        <ele>155.39</ele>
        <time>2018-09-24T14:04:45Z</time>
      </trkpt>
      <trkpt lat="49.65254" lon="5.03087">
        <ele>156.83</ele>
        <time>2018-09-24T14:05:02Z</time>
      </trkpt>
      <trkpt lat="49.65273" lon="5.0306">
        <ele>155.39</ele>
        <time>2018-09-24T14:05:23Z</time>
      </trkpt>
      <trkpt lat="49.65289" lon="5.03044">
        <ele>155.87</ele>
        <time>2018-09-24T14:05:37Z</time>
      </trkpt>
      <trkpt lat="49.65296" lon="5.03037">
        <ele>155.87</ele>
        <time>2018-09-24T14:05:43Z</time>
      </trkpt>
      <trkpt lat="49.65317" lon="5.03015">
        <ele>156.83</ele>
        <time>2018-09-24T14:06:02Z</time>
      </trkpt>
      <trkpt lat="49.65337" lon="5.02989">
        <ele>155.87</ele>
        <time>2018-09-24T14:06:24Z</time>
      </trkpt>
      <trkpt lat="49.65345" lon="5.02952">
        <ele>156.83</ele>
        <time>2018-09-24T14:06:45Z</time>
      </trkpt>
      <trkpt lat="49.6535" lon="5.0291">
        <ele>157.31</ele>
        <time>2018-09-24T14:07:05Z</time>
      </trkpt>
      <trkpt lat="49.65356" lon="5.02869">
        <ele>156.83</ele>
        <time>2018-09-24T14:07:26Z</time>
      </trkpt>
      <trkpt lat="49.65359" lon="5.02843">
        <ele>154.91</ele>
        <time>2018-09-24T14:07:43Z</time>
      </trkpt>
      <trkpt lat="49.65362" lon="5.02823">
        <ele>154.43</ele>
        <time>2018-09-24T14:07:57Z</time>
      </trkpt>
      <trkpt lat="49.65366" lon="5.02791">
        <ele>154.91</ele>
        <time>2018-09-24T14:08:16Z</time>
      </trkpt>
      <trkpt lat="49.6537" lon="5.02747">
        <ele>157.31</ele>
        <time>2018-09-24T14:08:37Z</time>
      </trkpt>
      <trkpt lat="49.65373" lon="5.02705">
        <ele>156.83</ele>
        <time>2018-09-24T14:09:01Z</time>
      </trkpt>
      <trkpt lat="49.65377" lon="5.02659">
        <ele>156.35</ele>
        <time>2018-09-24T14:09:22Z</time>
      </trkpt>
      <trkpt lat="49.6538" lon="5.02619">
        <ele>157.31</ele>
        <time>2018-09-24T14:09:41Z</time>
      </trkpt>
      <trkpt lat="49.65384" lon="5.02577">
        <ele>157.31</ele>
        <time>2018-09-24T14:10:05Z</time>
      </trkpt>
      <trkpt lat="49.65385" lon="5.02542">
        <ele>159.24</ele>
        <time>2018-09-24T14:10:22Z</time>
      </trkpt>
      <trkpt lat="49.65384" lon="5.02532">
        <ele>157.79</ele>
        <time>2018-09-24T14:10:37Z</time>
      </trkpt>
      <trkpt lat="49.65385" lon="5.02505">
        <ele>156.35</ele>
        <time>2018-09-24T14:10:54Z</time>
      </trkpt>
      <trkpt lat="49.65396" lon="5.02473">
        <ele>156.83</ele>
        <time>2018-09-24T14:11:13Z</time>
      </trkpt>
      <trkpt lat="49.65399" lon="5.02461">
        <ele>156.83</ele>
        <time>2018-09-24T14:11:26Z</time>
      </trkpt>
      <trkpt lat="49.6541" lon="5.02428">
        <ele>157.31</ele>
        <time>2018-09-24T14:11:44Z</time>
      </trkpt>
      <trkpt lat="49.65421" lon="5.02398">
        <ele>156.35</ele>
        <time>2018-09-24T14:12:03Z</time>
      </trkpt>
      <trkpt lat="49.6543" lon="5.02367">
        <ele>156.35</ele>
        <time>2018-09-24T14:12:22Z</time>
      </trkpt>
      <trkpt lat="49.65432" lon="5.02362">
        <ele>154.91</ele>
        <time>2018-09-24T14:12:38Z</time>
      </trkpt>
      <trkpt lat="49.65442" lon="5.02333">
        <ele>156.35</ele>
        <time>2018-09-24T14:12:56Z</time>
      </trkpt>
      <trkpt lat="49.65454" lon="5.02307">
        <ele>155.39</ele>
        <time>2018-09-24T14:13:14Z</time>
      </trkpt>
      <trkpt lat="49.65463" lon="5.02275">
        <ele>155.39</ele>
        <time>2018-09-24T14:13:31Z</time>
      </trkpt>
      <trkpt lat="49.65468" lon="5.02262">
        <ele>154.43</ele>
        <time>2018-09-24T14:13:46Z</time>
      </trkpt>
      <trkpt lat="49.65479" lon="5.02232">
        <ele>154.91</ele>
        <time>2018-09-24T14:14:06Z</time>
      </trkpt>
      <trkpt lat="49.65486" lon="5.02208">
        <ele>154.91</ele>
        <time>2018-09-24T14:14:23Z</time>
      </trkpt>
      <trkpt lat="49.65495" lon="5.02182">
        <ele>154.91</ele>
        <time>2018-09-24T14:14:40Z</time>
      </trkpt>
      <trkpt lat="49.65505" lon="5.02145">
        <ele>155.39</ele>
        <time>2018-09-24T14:15:00Z</time>
      </trkpt>
      <trkpt lat="49.65513" lon="5.02118">
        <ele>153.95</ele>
        <time>2018-09-24T14:15:19Z</time>
      </trkpt>
      <trkpt lat="49.6552" lon="5.02087">
        <ele>153.95</ele>
        <time>2018-09-24T14:15:35Z</time>
      </trkpt>
      <trkpt lat="49.65527" lon="5.02049">
        <ele>154.43</ele>
        <time>2018-09-24T14:15:56Z</time>
      </trkpt>
      <trkpt lat="49.65534" lon="5.0202">
        <ele>154.91</ele>
        <time>2018-09-24T14:16:13Z</time>
      </trkpt>
      <trkpt lat="49.65543" lon="5.01969">
        <ele>155.39</ele>
        <time>2018-09-24T14:16:38Z</time>
      </trkpt>
      <trkpt lat="49.65549" lon="5.0194">
        <ele>154.43</ele>
        <time>2018-09-24T14:16:57Z</time>
      </trkpt>
      <trkpt lat="49.65553" lon="5.01907">
        <ele>155.39</ele>
        <time>2018-09-24T14:17:16Z</time>
      </trkpt>
      <trkpt lat="49.65557" lon="5.01871">
        <ele>155.39</ele>
        <time>2018-09-24T14:17:33Z</time>
      </trkpt>
      <trkpt lat="49.65563" lon="5.01843">
        <ele>156.35</ele>
        <time>2018-09-24T14:17:50Z</time>
      </trkpt>
      <trkpt lat="49.65585" lon="5.01817">
        <ele>156.35</ele>
        <time>2018-09-24T14:18:11Z</time>
      </trkpt>
      <trkpt lat="49.65606" lon="5.01797">
        <ele>156.83</ele>
        <time>2018-09-24T14:18:32Z</time>
      </trkpt>
      <trkpt lat="49.65627" lon="5.0178">
        <ele>156.35</ele>
        <time>2018-09-24T14:18:52Z</time>
      </trkpt>
      <trkpt lat="49.6565" lon="5.0176">
        <ele>155.87</ele>
        <time>2018-09-24T14:19:12Z</time>
      </trkpt>
      <trkpt lat="49.65674" lon="5.01737">
        <ele>155.39</ele>
        <time>2018-09-24T14:19:35Z</time>
      </trkpt>
      <trkpt lat="49.65692" lon="5.01722">
        <ele>155.87</ele>
        <time>2018-09-24T14:19:53Z</time>
      </trkpt>
      <trkpt lat="49.65694" lon="5.0172">
        <ele>154.91</ele>
        <time>2018-09-24T14:20:10Z</time>
      </trkpt>
      <trkpt lat="49.6571" lon="5.01705">
        <ele>154.91</ele>
        <time>2018-09-24T14:20:27Z</time>
      </trkpt>
      <trkpt lat="49.65721" lon="5.01695">
        <ele>155.39</ele>
        <time>2018-09-24T14:20:40Z</time>
      </trkpt>
      <trkpt lat="49.65741" lon="5.01677">
        <ele>157.31</ele>
        <time>2018-09-24T14:20:57Z</time>
      </trkpt>
      <trkpt lat="49.65763" lon="5.01658">
        <ele>156.35</ele>
        <time>2018-09-24T14:21:19Z</time>
      </trkpt>
      <trkpt lat="49.65775" lon="5.01632">
        <ele>156.83</ele>
        <time>2018-09-24T14:21:37Z</time>
      </trkpt>
      <trkpt lat="49.65764" lon="5.01604">
        <ele>155.87</ele>
        <time>2018-09-24T14:21:55Z</time>
      </trkpt>
      <trkpt lat="49.6575" lon="5.01574">
        <ele>154.91</ele>
        <time>2018-09-24T14:22:15Z</time>
      </trkpt>
      <trkpt lat="49.65736" lon="5.01537">
        <ele>152.03</ele>
        <time>2018-09-24T14:22:38Z</time>
      </trkpt>
      <trkpt lat="49.65728" lon="5.01505">
        <ele>151.06</ele>
        <time>2018-09-24T14:22:57Z</time>
      </trkpt>
      <trkpt lat="49.65723" lon="5.01464">
        <ele>152.99</ele>
        <time>2018-09-24T14:23:20Z</time>
      </trkpt>
      <trkpt lat="49.6572" lon="5.01436">
        <ele>153.47</ele>
        <time>2018-09-24T14:23:34Z</time>
      </trkpt>
      <trkpt lat="49.65714" lon="5.01415">
        <ele>152.99</ele>
        <time>2018-09-24T14:23:48Z</time>
      </trkpt>
      <trkpt lat="49.65711" lon="5.01386">
        <ele>152.99</ele>
        <time>2018-09-24T14:24:06Z</time>
      </trkpt>
      <trkpt lat="49.65711" lon="5.01388">
        <ele>153.95</ele>
        <time>2018-09-24T14:24:15Z</time>
      </trkpt>
      <trkpt lat="49.6571" lon="5.01384">
        <ele>152.99</ele>
        <time>2018-09-24T14:24:30Z</time>
      </trkpt>
      <trkpt lat="49.65707" lon="5.01355">
        <ele>154.43</ele>
        <time>2018-09-24T14:24:48Z</time>
      </trkpt>
      <trkpt lat="49.65702" lon="5.01313">
        <ele>155.39</ele>
        <time>2018-09-24T14:25:07Z</time>
      </trkpt>
      <trkpt lat="49.657" lon="5.01277">
        <ele>154.43</ele>
        <time>2018-09-24T14:25:27Z</time>
      </trkpt>
      <trkpt lat="49.657" lon="5.01245">
        <ele>156.83</ele>
        <time>2018-09-24T14:25:48Z</time>
      </trkpt>
      <trkpt lat="49.65697" lon="5.01226">
        <ele>155.87</ele>
        <time>2018-09-24T14:26:03Z</time>
      </trkpt>
      <trkpt lat="49.65695" lon="5.01212">
        <ele>154.43</ele>
        <time>2018-09-24T14:26:16Z</time>
      </trkpt>
      <trkpt lat="49.65693" lon="5.01181">
        <ele>152.99</ele>
        <time>2018-09-24T14:26:33Z</time>
      </trkpt>
      <trkpt lat="49.6569" lon="5.01164">
        <ele>152.03</ele>
        <time>2018-09-24T14:26:48Z</time>
      </trkpt>
      <trkpt lat="49.65688" lon="5.01132">
        <ele>151.54</ele>
        <time>2018-09-24T14:27:04Z</time>
      </trkpt>
      <trkpt lat="49.65687" lon="5.01104">
        <ele>151.06</ele>
        <time>2018-09-24T14:27:18Z</time>
      </trkpt>
      <trkpt lat="49.65684" lon="5.01075">
        <ele>151.54</ele>
        <time>2018-09-24T14:27:34Z</time>
      </trkpt>
      <trkpt lat="49.65682" lon="5.01044">
        <ele>152.03</ele>
        <time>2018-09-24T14:27:51Z</time>
      </trkpt>
      <trkpt lat="49.6568" lon="5.01019">
        <ele>152.03</ele>
        <time>2018-09-24T14:28:09Z</time>
      </trkpt>
      <trkpt lat="49.65678" lon="5.00987">
        <ele>153.95</ele>
        <time>2018-09-24T14:28:27Z</time>
      </trkpt>
      <trkpt lat="49.65677" lon="5.00965">
        <ele>154.91</ele>
        <time>2018-09-24T14:28:43Z</time>
      </trkpt>
      <trkpt lat="49.65672" lon="5.0093">
        <ele>155.39</ele>
        <time>2018-09-24T14:29:02Z</time>
      </trkpt>
      <trkpt lat="49.65668" lon="5.00895">
        <ele>154.91</ele>
        <time>2018-09-24T14:29:23Z</time>
      </trkpt>
      <trkpt lat="49.65666" lon="5.00874">
        <ele>156.35</ele>
        <time>2018-09-24T14:29:37Z</time>
      </trkpt>
      <trkpt lat="49.65665" lon="5.00866">
        <ele>156.83</ele>
        <time>2018-09-24T14:29:41Z</time>
      </trkpt>
      <trkpt lat="49.6566" lon="5.00826">
        <ele>156.35</ele>
        <time>2018-09-24T14:30:02Z</time>
      </trkpt>
      <trkpt lat="49.65656" lon="5.00796">
        <ele>154.91</ele>
        <time>2018-09-24T14:30:22Z</time>
      </trkpt>
      <trkpt lat="49.65653" lon="5.00781">
        <ele>153.47</ele>
        <time>2018-09-24T14:30:39Z</time>
      </trkpt>
      <trkpt lat="49.65651" lon="5.00766">
        <ele>152.99</ele>
        <time>2018-09-24T14:30:54Z</time>
      </trkpt>
      <trkpt lat="49.65647" lon="5.00737">
        <ele>152.99</ele>
        <time>2018-09-24T14:31:10Z</time>
      </trkpt>
      <trkpt lat="49.65643" lon="5.00702">
        <ele>152.51</ele>
        <time>2018-09-24T14:31:32Z</time>
      </trkpt>
      <trkpt lat="49.65641" lon="5.00679">
        <ele>152.51</ele>
        <time>2018-09-24T14:31:44Z</time>
      </trkpt>
      <trkpt lat="49.6564" lon="5.00675">
        <ele>152.51</ele>
        <time>2018-09-24T14:31:46Z</time>
      </trkpt>
      <trkpt lat="49.65634" lon="5.00636">
        <ele>151.54</ele>
        <time>2018-09-24T14:32:06Z</time>
      </trkpt>
      <trkpt lat="49.65622" lon="5.00601">
        <ele>150.1</ele>
        <time>2018-09-24T14:32:26Z</time>
      </trkpt>
      <trkpt lat="49.65618" lon="5.00592">
        <ele>150.1</ele>
        <time>2018-09-24T14:32:39Z</time>
      </trkpt>
      <trkpt lat="49.65615" lon="5.00583">
        <ele>149.62</ele>
        <time>2018-09-24T14:32:54Z</time>
      </trkpt>
      <trkpt lat="49.65609" lon="5.00569">
        <ele>149.62</ele>
        <time>2018-09-24T14:33:06Z</time>
      </trkpt>
      <trkpt lat="49.65594" lon="5.00536">
        <ele>149.14</ele>
        <time>2018-09-24T14:33:29Z</time>
      </trkpt>
      <trkpt lat="49.65582" lon="5.0051">
        <ele>150.1</ele>
        <time>2018-09-24T14:33:51Z</time>
      </trkpt>
      <trkpt lat="49.65577" lon="5.00497">
        <ele>150.58</ele>
        <time>2018-09-24T14:34:04Z</time>
      </trkpt>
      <trkpt lat="49.65569" lon="5.00481">
        <ele>149.62</ele>
        <time>2018-09-24T14:34:22Z</time>
      </trkpt>
      <trkpt lat="49.65558" lon="5.00458">
        <ele>150.58</ele>
        <time>2018-09-24T14:34:38Z</time>
      </trkpt>
      <trkpt lat="49.65547" lon="5.00433">
        <ele>150.1</ele>
        <time>2018-09-24T14:34:56Z</time>
      </trkpt>
      <trkpt lat="49.65536" lon="5.0041">
        <ele>150.1</ele>
        <time>2018-09-24T14:35:17Z</time>
      </trkpt>
      <trkpt lat="49.65533" lon="5.00402">
        <ele>150.1</ele>
        <time>2018-09-24T14:35:30Z</time>
      </trkpt>
      <trkpt lat="49.65521" lon="5.00378">
        <ele>150.1</ele>
        <time>2018-09-24T14:35:49Z</time>
      </trkpt>
      <trkpt lat="49.65513" lon="5.00361">
        <ele>150.58</ele>
        <time>2018-09-24T14:36:05Z</time>
      </trkpt>
      <trkpt lat="49.65501" lon="5.00333">
        <ele>150.58</ele>
        <time>2018-09-24T14:36:25Z</time>
      </trkpt>
      <trkpt lat="49.65486" lon="5.00302">
        <ele>152.03</ele>
        <time>2018-09-24T14:36:48Z</time>
      </trkpt>
      <trkpt lat="49.6548" lon="5.00287">
        <ele>152.03</ele>
        <time>2018-09-24T14:37:02Z</time>
      </trkpt>
      <trkpt lat="49.65475" lon="5.00275">
        <ele>152.03</ele>
        <time>2018-09-24T14:37:15Z</time>
      </trkpt>
      <trkpt lat="49.65467" lon="5.00258">
        <ele>152.03</ele>
        <time>2018-09-24T14:37:31Z</time>
      </trkpt>
      <trkpt lat="49.65456" lon="5.00234">
        <ele>152.03</ele>
        <time>2018-09-24T14:37:47Z</time>
      </trkpt>
      <trkpt lat="49.65447" lon="5.00215">
        <ele>154.43</ele>
        <time>2018-09-24T14:38:05Z</time>
      </trkpt>
      <trkpt lat="49.65437" lon="5.00193">
        <ele>155.87</ele>
        <time>2018-09-24T14:38:22Z</time>
      </trkpt>
      <trkpt lat="49.65424" lon="5.00163">
        <ele>156.35</ele>
        <time>2018-09-24T14:38:42Z</time>
      </trkpt>
      <trkpt lat="49.65417" lon="5.00148">
        <ele>155.39</ele>
        <time>2018-09-24T14:39:01Z</time>
      </trkpt>
      <trkpt lat="49.65417" lon="5.00149">
        <ele>154.91</ele>
        <time>2018-09-24T14:39:11Z</time>
      </trkpt>
      <trkpt lat="49.65412" lon="5.00153">
        <ele>153.95</ele>
        <time>2018-09-24T14:39:26Z</time>
      </trkpt>
      <trkpt lat="49.65411" lon="5.00155">
        <ele>152.99</ele>
        <time>2018-09-24T14:39:43Z</time>
      </trkpt>
      <trkpt lat="49.6541" lon="5.00155">
        <ele>153.47</ele>
        <time>2018-09-24T14:39:58Z</time>
      </trkpt>
      <trkpt lat="49.65409" lon="5.00156">
        <ele>153.47</ele>
        <time>2018-09-24T14:40:25Z</time>
      </trkpt>
      <trkpt lat="49.65412" lon="5.00151">
        <ele>152.99</ele>
        <time>2018-09-24T14:40:46Z</time>
      </trkpt>
      <trkpt lat="49.65413" lon="5.00142">
        <ele>152.51</ele>
        <time>2018-09-24T14:40:58Z</time>
      </trkpt>
      <trkpt lat="49.6541" lon="5.00136">
        <ele>152.99</ele>
        <time>2018-09-24T14:41:08Z</time>
      </trkpt>
      <trkpt lat="49.65407" lon="5.00128">
        <ele>152.51</ele>
        <time>2018-09-24T14:41:22Z</time>
      </trkpt>
      <trkpt lat="49.654" lon="5.00116">
        <ele>152.99</ele>
        <time>2018-09-24T14:41:40Z</time>
      </trkpt>
      <trkpt lat="49.65389" lon="5.00095">
        <ele>153.47</ele>
        <time>2018-09-24T14:41:57Z</time>
      </trkpt>
      <trkpt lat="49.65388" lon="5.00092">
        <ele>153.47</ele>
        <time>2018-09-24T14:42:08Z</time>
      </trkpt>
      <trkpt lat="49.65387" lon="5.00092">
        <ele>153.47</ele>
        <time>2018-09-24T14:42:11Z</time>
      </trkpt>
      <trkpt lat="49.65381" lon="5.00076">
        <ele>155.39</ele>
        <time>2018-09-24T14:42:21Z</time>
      </trkpt>
      <trkpt lat="49.65362" lon="5.00055">
        <ele>155.39</ele>
        <time>2018-09-24T14:42:42Z</time>
      </trkpt>
      <trkpt lat="49.65347" lon="5.00038">
        <ele>156.35</ele>
        <time>2018-09-24T14:43:01Z</time>
      </trkpt>
      <trkpt lat="49.65335" lon="5.00023">
        <ele>156.83</ele>
        <time>2018-09-24T14:43:19Z</time>
      </trkpt>
      <trkpt lat="49.65319" lon="5.00008">
        <ele>158.75</ele>
        <time>2018-09-24T14:43:37Z</time>
      </trkpt>
      <trkpt lat="49.65314" lon="5">
        <ele>159.72</ele>
        <time>2018-09-24T14:43:45Z</time>
      </trkpt>
      <trkpt lat="49.65294" lon="4.99977">
        <ele>161.16</ele>
        <time>2018-09-24T14:44:03Z</time>
      </trkpt>
      <trkpt lat="49.65274" lon="4.99955">
        <ele>162.6</ele>
        <time>2018-09-24T14:44:24Z</time>
      </trkpt>
      <trkpt lat="49.65258" lon="4.99937">
        <ele>161.16</ele>
        <time>2018-09-24T14:44:42Z</time>
      </trkpt>
      <trkpt lat="49.65243" lon="4.99919">
        <ele>161.16</ele>
        <time>2018-09-24T14:44:58Z</time>
      </trkpt>
      <trkpt lat="49.65227" lon="4.99898">
        <ele>158.27</ele>
        <time>2018-09-24T14:45:17Z</time>
      </trkpt>
      <trkpt lat="49.65218" lon="4.99888">
        <ele>157.79</ele>
        <time>2018-09-24T14:45:32Z</time>
      </trkpt>
      <trkpt lat="49.65219" lon="4.99889">
        <ele>158.75</ele>
        <time>2018-09-24T14:45:51Z</time>
      </trkpt>
      <trkpt lat="49.65219" lon="4.99888">
        <ele>158.27</ele>
        <time>2018-09-24T14:46:10Z</time>
      </trkpt>
      <trkpt lat="49.65219" lon="4.99887">
        <ele>158.27</ele>
        <time>2018-09-24T14:46:13Z</time>
      </trkpt>
      <trkpt lat="49.6523" lon="4.99866">
        <ele>156.83</ele>
        <time>2018-09-24T14:46:30Z</time>
      </trkpt>
      <trkpt lat="49.65233" lon="4.99864">
        <ele>156.83</ele>
        <time>2018-09-24T14:46:51Z</time>
      </trkpt>
      <trkpt lat="49.65235" lon="4.9986">
        <ele>156.35</ele>
        <time>2018-09-24T14:47:06Z</time>
      </trkpt>
      <trkpt lat="49.65242" lon="4.99848">
        <ele>153.95</ele>
        <time>2018-09-24T14:47:30Z</time>
      </trkpt>
      <trkpt lat="49.65252" lon="4.99833">
        <ele>148.66</ele>
        <time>2018-09-24T14:47:42Z</time>
      </trkpt>
      <trkpt lat="49.65255" lon="4.99826">
        <ele>145.78</ele>
        <time>2018-09-24T14:47:47Z</time>
      </trkpt>
      <trkpt lat="49.65262" lon="4.99818">
        <ele>142.41</ele>
        <time>2018-09-24T14:47:54Z</time>
      </trkpt>
      <trkpt lat="49.65279" lon="4.99798">
        <ele>140.49</ele>
        <time>2018-09-24T14:48:16Z</time>
      </trkpt>
      <trkpt lat="49.6529" lon="4.99782">
        <ele>143.85</ele>
        <time>2018-09-24T14:48:31Z</time>
      </trkpt>
      <trkpt lat="49.65304" lon="4.99751">
        <ele>152.03</ele>
        <time>2018-09-24T14:48:51Z</time>
      </trkpt>
      <trkpt lat="49.65313" lon="4.99722">
        <ele>152.03</ele>
        <time>2018-09-24T14:49:09Z</time>
      </trkpt>
      <trkpt lat="49.65322" lon="4.99697">
        <ele>152.03</ele>
        <time>2018-09-24T14:49:29Z</time>
      </trkpt>
      <trkpt lat="49.65329" lon="4.99677">
        <ele>152.51</ele>
        <time>2018-09-24T14:49:46Z</time>
      </trkpt>
      <trkpt lat="49.65329" lon="4.9967">
        <ele>154.43</ele>
        <time>2018-09-24T14:50:10Z</time>
      </trkpt>
      <trkpt lat="49.65345" lon="4.99642">
        <ele>153.95</ele>
        <time>2018-09-24T14:50:30Z</time>
      </trkpt>
      <trkpt lat="49.6536" lon="4.9962">
        <ele>153.95</ele>
        <time>2018-09-24T14:50:49Z</time>
      </trkpt>
      <trkpt lat="49.65375" lon="4.99597">
        <ele>152.51</ele>
        <time>2018-09-24T14:51:08Z</time>
      </trkpt>
      <trkpt lat="49.65392" lon="4.99574">
        <ele>157.79</ele>
        <time>2018-09-24T14:51:27Z</time>
      </trkpt>
      <trkpt lat="49.65402" lon="4.99543">
        <ele>157.31</ele>
        <time>2018-09-24T14:51:47Z</time>
      </trkpt>
      <trkpt lat="49.65411" lon="4.99515">
        <ele>153.47</ele>
        <time>2018-09-24T14:52:05Z</time>
      </trkpt>
      <trkpt lat="49.65422" lon="4.99491">
        <ele>148.66</ele>
        <time>2018-09-24T14:52:24Z</time>
      </trkpt>
      <trkpt lat="49.65428" lon="4.99479">
        <ele>148.66</ele>
        <time>2018-09-24T14:52:40Z</time>
      </trkpt>
      <trkpt lat="49.65441" lon="4.99458">
        <ele>150.1</ele>
        <time>2018-09-24T14:52:59Z</time>
      </trkpt>
      <trkpt lat="49.65456" lon="4.99432">
        <ele>151.54</ele>
        <time>2018-09-24T14:53:19Z</time>
      </trkpt>
      <trkpt lat="49.65467" lon="4.99412">
        <ele>151.06</ele>
        <time>2018-09-24T14:53:35Z</time>
      </trkpt>
      <trkpt lat="49.65483" lon="4.99386">
        <ele>149.62</ele>
        <time>2018-09-24T14:53:55Z</time>
      </trkpt>
      <trkpt lat="49.65497" lon="4.99362">
        <ele>147.22</ele>
        <time>2018-09-24T14:54:15Z</time>
      </trkpt>
      <trkpt lat="49.65515" lon="4.99332">
        <ele>148.66</ele>
        <time>2018-09-24T14:54:36Z</time>
      </trkpt>
      <trkpt lat="49.6553" lon="4.99304">
        <ele>148.66</ele>
        <time>2018-09-24T14:54:58Z</time>
      </trkpt>
      <trkpt lat="49.65546" lon="4.99282">
        <ele>150.58</ele>
        <time>2018-09-24T14:55:16Z</time>
      </trkpt>
      <trkpt lat="49.65556" lon="4.99265">
        <ele>151.06</ele>
        <time>2018-09-24T14:55:33Z</time>
      </trkpt>
      <trkpt lat="49.65567" lon="4.99244">
        <ele>153.47</ele>
        <time>2018-09-24T14:55:52Z</time>
      </trkpt>
      <trkpt lat="49.65566" lon="4.99245">
        <ele>154.91</ele>
        <time>2018-09-24T14:56:12Z</time>
      </trkpt>
      <trkpt lat="49.65565" lon="4.99244">
        <ele>153.95</ele>
        <time>2018-09-24T14:56:33Z</time>
      </trkpt>
      <trkpt lat="49.6556" lon="4.99237">
        <ele>154.43</ele>
        <time>2018-09-24T14:56:47Z</time>
      </trkpt>
      <trkpt lat="49.65557" lon="4.99233">
        <ele>154.91</ele>
        <time>2018-09-24T14:56:55Z</time>
      </trkpt>
      <trkpt lat="49.65551" lon="4.99229">
        <ele>154.91</ele>
        <time>2018-09-24T14:57:05Z</time>
      </trkpt>
      <trkpt lat="49.65547" lon="4.99225">
        <ele>155.39</ele>
        <time>2018-09-24T14:57:17Z</time>
      </trkpt>
      <trkpt lat="49.65545" lon="4.99224">
        <ele>155.39</ele>
        <time>2018-09-24T14:57:20Z</time>
      </trkpt>
      <trkpt lat="49.65542" lon="4.99222">
        <ele>155.39</ele>
        <time>2018-09-24T14:57:27Z</time>
      </trkpt>
      <trkpt lat="49.6553" lon="4.99212">
        <ele>152.99</ele>
        <time>2018-09-24T14:57:39Z</time>
      </trkpt>
      <trkpt lat="49.65513" lon="4.99199">
        <ele>147.22</ele>
        <time>2018-09-24T14:57:58Z</time>
      </trkpt>
      <trkpt lat="49.65506" lon="4.99197">
        <ele>147.7</ele>
        <time>2018-09-24T14:58:17Z</time>
      </trkpt>
      <trkpt lat="49.65499" lon="4.99202">
        <ele>148.66</ele>
        <time>2018-09-24T14:58:24Z</time>
      </trkpt>
      <trkpt lat="49.65486" lon="4.99227">
        <ele>152.51</ele>
        <time>2018-09-24T14:58:42Z</time>
      </trkpt>
      <trkpt lat="49.65477" lon="4.99255">
        <ele>153.95</ele>
        <time>2018-09-24T14:59:01Z</time>
      </trkpt>
      <trkpt lat="49.65462" lon="4.9928">
        <ele>155.39</ele>
        <time>2018-09-24T14:59:20Z</time>
      </trkpt>
      <trkpt lat="49.65458" lon="4.99279">
        <ele>154.91</ele>
        <time>2018-09-24T14:59:24Z</time>
      </trkpt>
      <trkpt lat="49.65452" lon="4.99273">
        <ele>154.43</ele>
        <time>2018-09-24T14:59:31Z</time>
      </trkpt>
      <trkpt lat="49.65445" lon="4.99264">
        <ele>152.99</ele>
        <time>2018-09-24T14:59:41Z</time>
      </trkpt>
      <trkpt lat="49.6543" lon="4.99246">
        <ele>155.87</ele>
        <time>2018-09-24T15:00:01Z</time>
      </trkpt>
      <trkpt lat="49.65425" lon="4.99239">
        <ele>156.83</ele>
        <time>2018-09-24T15:00:25Z</time>
      </trkpt>
      <trkpt lat="49.65423" lon="4.99235">
        <ele>155.39</ele>
        <time>2018-09-24T15:00:43Z</time>
      </trkpt>
      <trkpt lat="49.65414" lon="4.99221">
        <ele>157.31</ele>
        <time>2018-09-24T15:00:59Z</time>
      </trkpt>
      <trkpt lat="49.65406" lon="4.99209">
        <ele>158.27</ele>
        <time>2018-09-24T15:01:17Z</time>
      </trkpt>
      <trkpt lat="49.65399" lon="4.99198">
        <ele>157.79</ele>
        <time>2018-09-24T15:01:32Z</time>
      </trkpt>
      <trkpt lat="49.65385" lon="4.99182">
        <ele>157.79</ele>
        <time>2018-09-24T15:01:51Z</time>
      </trkpt>
      <trkpt lat="49.65378" lon="4.9919">
        <ele>156.83</ele>
        <time>2018-09-24T15:02:03Z</time>
      </trkpt>
      <trkpt lat="49.65375" lon="4.99195">
        <ele>156.83</ele>
        <time>2018-09-24T15:02:08Z</time>
      </trkpt>
      <trkpt lat="49.6537" lon="4.99189">
        <ele>155.87</ele>
        <time>2018-09-24T15:02:15Z</time>
      </trkpt>
      <trkpt lat="49.65374" lon="4.99181">
        <ele>154.91</ele>
        <time>2018-09-24T15:02:22Z</time>
      </trkpt>
      <trkpt lat="49.65375" lon="4.99176">
        <ele>154.91</ele>
        <time>2018-09-24T15:02:25Z</time>
      </trkpt>
      <trkpt lat="49.65368" lon="4.99157">
        <ele>153.47</ele>
        <time>2018-09-24T15:02:43Z</time>
      </trkpt>
      <trkpt lat="49.65366" lon="4.99156">
        <ele>153.95</ele>
        <time>2018-09-24T15:02:58Z</time>
      </trkpt>
      <trkpt lat="49.65363" lon="4.99151">
        <ele>153.95</ele>
        <time>2018-09-24T15:03:12Z</time>
      </trkpt>
      <trkpt lat="49.65347" lon="4.99122">
        <ele>153.47</ele>
        <time>2018-09-24T15:03:33Z</time>
      </trkpt>
      <trkpt lat="49.65336" lon="4.9909">
        <ele>153.95</ele>
        <time>2018-09-24T15:03:53Z</time>
      </trkpt>
      <trkpt lat="49.65328" lon="4.99072">
        <ele>154.43</ele>
        <time>2018-09-24T15:04:06Z</time>
      </trkpt>
      <trkpt lat="49.65325" lon="4.99055">
        <ele>153.47</ele>
        <time>2018-09-24T15:04:21Z</time>
      </trkpt>
      <trkpt lat="49.65317" lon="4.9904">
        <ele>153.95</ele>
        <time>2018-09-24T15:04:33Z</time>
      </trkpt>
      <trkpt lat="49.65307" lon="4.99027">
        <ele>152.03</ele>
        <time>2018-09-24T15:04:50Z</time>
      </trkpt>
      <trkpt lat="49.65296" lon="4.99016">
        <ele>150.58</ele>
        <time>2018-09-24T15:05:06Z</time>
      </trkpt>
      <trkpt lat="49.65293" lon="4.99012">
        <ele>150.58</ele>
        <time>2018-09-24T15:05:09Z</time>
      </trkpt>
      <trkpt lat="49.65288" lon="4.99006">
        <ele>150.58</ele>
        <time>2018-09-24T15:05:14Z</time>
      </trkpt>
      <trkpt lat="49.6528" lon="4.99">
        <ele>150.58</ele>
        <time>2018-09-24T15:05:26Z</time>
      </trkpt>
      <trkpt lat="49.65272" lon="4.98995">
        <ele>152.51</ele>
        <time>2018-09-24T15:05:41Z</time>
      </trkpt>
      <trkpt lat="49.65271" lon="4.98995">
        <ele>152.51</ele>
        <time>2018-09-24T15:05:56Z</time>
      </trkpt>
      <trkpt lat="49.6527" lon="4.98994">
        <ele>152.51</ele>
        <time>2018-09-24T15:06:17Z</time>
      </trkpt>
      <trkpt lat="49.6526" lon="4.98985">
        <ele>152.03</ele>
        <time>2018-09-24T15:06:31Z</time>
      </trkpt>
      <trkpt lat="49.6525" lon="4.98978">
        <ele>152.03</ele>
        <time>2018-09-24T15:06:43Z</time>
      </trkpt>
      <trkpt lat="49.65235" lon="4.98964">
        <ele>150.1</ele>
        <time>2018-09-24T15:06:59Z</time>
      </trkpt>
      <trkpt lat="49.65218" lon="4.98949">
        <ele>148.66</ele>
        <time>2018-09-24T15:07:17Z</time>
      </trkpt>
      <trkpt lat="49.65206" lon="4.98938">
        <ele>150.1</ele>
        <time>2018-09-24T15:07:33Z</time>
      </trkpt>
      <trkpt lat="49.65189" lon="4.98924">
        <ele>150.1</ele>
        <time>2018-09-24T15:07:49Z</time>
      </trkpt>
      <trkpt lat="49.65167" lon="4.98905">
        <ele>148.18</ele>
        <time>2018-09-24T15:08:10Z</time>
      </trkpt>
      <trkpt lat="49.65163" lon="4.989">
        <ele>148.66</ele>
        <time>2018-09-24T15:08:15Z</time>
      </trkpt>
      <trkpt lat="49.65146" lon="4.98883">
        <ele>151.54</ele>
        <time>2018-09-24T15:08:35Z</time>
      </trkpt>
      <trkpt lat="49.65128" lon="4.98861">
        <ele>157.31</ele>
        <time>2018-09-24T15:08:56Z</time>
      </trkpt>
      <trkpt lat="49.65107" lon="4.98842">
        <ele>157.31</ele>
        <time>2018-09-24T15:09:14Z</time>
      </trkpt>
      <trkpt lat="49.65088" lon="4.98826">
        <ele>153.95</ele>
        <time>2018-09-24T15:09:32Z</time>
      </trkpt>
      <trkpt lat="49.65069" lon="4.98808">
        <ele>151.06</ele>
        <time>2018-09-24T15:09:50Z</time>
      </trkpt>
      <trkpt lat="49.6505" lon="4.98788">
        <ele>146.26</ele>
        <time>2018-09-24T15:10:10Z</time>
      </trkpt>
      <trkpt lat="49.65031" lon="4.98771">
        <ele>146.26</ele>
        <time>2018-09-24T15:10:29Z</time>
      </trkpt>
      <trkpt lat="49.65013" lon="4.98754">
        <ele>147.7</ele>
        <time>2018-09-24T15:10:49Z</time>
      </trkpt>
      <trkpt lat="49.65008" lon="4.98748">
        <ele>148.18</ele>
        <time>2018-09-24T15:11:01Z</time>
      </trkpt>
      <trkpt lat="49.64997" lon="4.98737">
        <ele>148.66</ele>
        <time>2018-09-24T15:11:17Z</time>
      </trkpt>
      <trkpt lat="49.6498" lon="4.98721">
        <ele>147.7</ele>
        <time>2018-09-24T15:11:34Z</time>
      </trkpt>
      <trkpt lat="49.6496" lon="4.98703">
        <ele>149.62</ele>
        <time>2018-09-24T15:11:55Z</time>
      </trkpt>
      <trkpt lat="49.64943" lon="4.98685">
        <ele>150.58</ele>
        <time>2018-09-24T15:12:12Z</time>
      </trkpt>
      <trkpt lat="49.64923" lon="4.98676">
        <ele>150.1</ele>
        <time>2018-09-24T15:12:31Z</time>
      </trkpt>
      <trkpt lat="49.64907" lon="4.98671">
        <ele>149.14</ele>
        <time>2018-09-24T15:12:47Z</time>
      </trkpt>
      <trkpt lat="49.64903" lon="4.98667">
        <ele>151.06</ele>
        <time>2018-09-24T15:13:08Z</time>
      </trkpt>
      <trkpt lat="49.64881" lon="4.98651">
        <ele>151.54</ele>
        <time>2018-09-24T15:13:29Z</time>
      </trkpt>
      <trkpt lat="49.64866" lon="4.98637">
        <ele>150.58</ele>
        <time>2018-09-24T15:13:45Z</time>
      </trkpt>
      <trkpt lat="49.64843" lon="4.98623">
        <ele>151.54</ele>
        <time>2018-09-24T15:14:04Z</time>
      </trkpt>
      <trkpt lat="49.6482" lon="4.98612">
        <ele>151.06</ele>
        <time>2018-09-24T15:14:26Z</time>
      </trkpt>
      <trkpt lat="49.64803" lon="4.98601">
        <ele>150.1</ele>
        <time>2018-09-24T15:14:44Z</time>
      </trkpt>
      <trkpt lat="49.64788" lon="4.98592">
        <ele>150.58</ele>
        <time>2018-09-24T15:15:01Z</time>
      </trkpt>
      <trkpt lat="49.64775" lon="4.98586">
        <ele>151.54</ele>
        <time>2018-09-24T15:15:17Z</time>
      </trkpt>
      <trkpt lat="49.64752" lon="4.98575">
        <ele>152.99</ele>
        <time>2018-09-24T15:15:38Z</time>
      </trkpt>
      <trkpt lat="49.6473" lon="4.98563">
        <ele>152.99</ele>
        <time>2018-09-24T15:15:58Z</time>
      </trkpt>
      <trkpt lat="49.64711" lon="4.98553">
        <ele>153.47</ele>
        <time>2018-09-24T15:16:19Z</time>
      </trkpt>
      <trkpt lat="49.64688" lon="4.9854">
        <ele>154.43</ele>
        <time>2018-09-24T15:16:40Z</time>
      </trkpt>
      <trkpt lat="49.6467" lon="4.98531">
        <ele>155.39</ele>
        <time>2018-09-24T15:16:58Z</time>
      </trkpt>
      <trkpt lat="49.64657" lon="4.98522">
        <ele>154.91</ele>
        <time>2018-09-24T15:17:11Z</time>
      </trkpt>
      <trkpt lat="49.64638" lon="4.98512">
        <ele>154.43</ele>
        <time>2018-09-24T15:17:29Z</time>
      </trkpt>
      <trkpt lat="49.64621" lon="4.98504">
        <ele>153.95</ele>
        <time>2018-09-24T15:17:45Z</time>
      </trkpt>
      <trkpt lat="49.64606" lon="4.98494">
        <ele>152.99</ele>
        <time>2018-09-24T15:17:59Z</time>
      </trkpt>
      <trkpt lat="49.64604" lon="4.98494">
        <ele>152.99</ele>
        <time>2018-09-24T15:18:00Z</time>
      </trkpt>
      <trkpt lat="49.64583" lon="4.9848">
        <ele>152.03</ele>
        <time>2018-09-24T15:18:20Z</time>
      </trkpt>
      <trkpt lat="49.64569" lon="4.98472">
        <ele>152.03</ele>
        <time>2018-09-24T15:18:37Z</time>
      </trkpt>
      <trkpt lat="49.64556" lon="4.98464">
        <ele>151.54</ele>
        <time>2018-09-24T15:18:51Z</time>
      </trkpt>
      <trkpt lat="49.64548" lon="4.9846">
        <ele>152.03</ele>
        <time>2018-09-24T15:19:07Z</time>
      </trkpt>
      <trkpt lat="49.64542" lon="4.98457">
        <ele>151.54</ele>
        <time>2018-09-24T15:19:21Z</time>
      </trkpt>
      <trkpt lat="49.64524" lon="4.98447">
        <ele>149.62</ele>
        <time>2018-09-24T15:19:39Z</time>
      </trkpt>
      <trkpt lat="49.6451" lon="4.98439">
        <ele>149.62</ele>
        <time>2018-09-24T15:19:58Z</time>
      </trkpt>
      <trkpt lat="49.64509" lon="4.9844">
        <ele>152.51</ele>
        <time>2018-09-24T15:20:24Z</time>
      </trkpt>
      <trkpt lat="49.64502" lon="4.98439">
        <ele>153.95</ele>
        <time>2018-09-24T15:20:44Z</time>
      </trkpt>
      <trkpt lat="49.64489" lon="4.98429">
        <ele>154.43</ele>
        <time>2018-09-24T15:21:01Z</time>
      </trkpt>
      <trkpt lat="49.64474" lon="4.98416">
        <ele>155.87</ele>
        <time>2018-09-24T15:21:17Z</time>
      </trkpt>
      <trkpt lat="49.64455" lon="4.98405">
        <ele>157.79</ele>
        <time>2018-09-24T15:21:36Z</time>
      </trkpt>
      <trkpt lat="49.64453" lon="4.98402">
        <ele>158.75</ele>
        <time>2018-09-24T15:21:53Z</time>
      </trkpt>
      <trkpt lat="49.64443" lon="4.98396">
        <ele>158.75</ele>
        <time>2018-09-24T15:22:09Z</time>
      </trkpt>
      <trkpt lat="49.64428" lon="4.98387">
        <ele>157.79</ele>
        <time>2018-09-24T15:22:27Z</time>
      </trkpt>
      <trkpt lat="49.64414" lon="4.98377">
        <ele>158.27</ele>
        <time>2018-09-24T15:22:44Z</time>
      </trkpt>
      <trkpt lat="49.64409" lon="4.98372">
        <ele>158.75</ele>
        <time>2018-09-24T15:23:01Z</time>
      </trkpt>
      <trkpt lat="49.64395" lon="4.98364">
        <ele>159.24</ele>
        <time>2018-09-24T15:23:18Z</time>
      </trkpt>
      <trkpt lat="49.64387" lon="4.9836">
        <ele>159.24</ele>
        <time>2018-09-24T15:23:36Z</time>
      </trkpt>
      <trkpt lat="49.64373" lon="4.9835">
        <ele>158.27</ele>
        <time>2018-09-24T15:23:54Z</time>
      </trkpt>
      <trkpt lat="49.64351" lon="4.98331">
        <ele>157.31</ele>
        <time>2018-09-24T15:24:14Z</time>
      </trkpt>
      <trkpt lat="49.64336" lon="4.98318">
        <ele>154.91</ele>
        <time>2018-09-24T15:24:32Z</time>
      </trkpt>
      <trkpt lat="49.6432" lon="4.98304">
        <ele>153.47</ele>
        <time>2018-09-24T15:24:50Z</time>
      </trkpt>
      <trkpt lat="49.64306" lon="4.98294">
        <ele>156.83</ele>
        <time>2018-09-24T15:25:11Z</time>
      </trkpt>
      <trkpt lat="49.64295" lon="4.98285">
        <ele>157.79</ele>
        <time>2018-09-24T15:25:30Z</time>
      </trkpt>
      <trkpt lat="49.64275" lon="4.98264">
        <ele>159.24</ele>
        <time>2018-09-24T15:25:48Z</time>
      </trkpt>
      <trkpt lat="49.64258" lon="4.98251">
        <ele>161.16</ele>
        <time>2018-09-24T15:26:05Z</time>
      </trkpt>
      <trkpt lat="49.64253" lon="4.98245">
        <ele>160.2</ele>
        <time>2018-09-24T15:26:25Z</time>
      </trkpt>
      <trkpt lat="49.64247" lon="4.9824">
        <ele>159.72</ele>
        <time>2018-09-24T15:26:44Z</time>
      </trkpt>
      <trkpt lat="49.64235" lon="4.98231">
        <ele>158.75</ele>
        <time>2018-09-24T15:27:00Z</time>
      </trkpt>
      <trkpt lat="49.6423" lon="4.98225">
        <ele>159.24</ele>
        <time>2018-09-24T15:27:06Z</time>
      </trkpt>
      <trkpt lat="49.6421" lon="4.98209">
        <ele>157.79</ele>
        <time>2018-09-24T15:27:24Z</time>
      </trkpt>
      <trkpt lat="49.64193" lon="4.9819">
        <ele>156.35</ele>
        <time>2018-09-24T15:27:43Z</time>
      </trkpt>
      <trkpt lat="49.6418" lon="4.98178">
        <ele>157.31</ele>
        <time>2018-09-24T15:28:02Z</time>
      </trkpt>
      <trkpt lat="49.64163" lon="4.98164">
        <ele>159.72</ele>
        <time>2018-09-24T15:28:25Z</time>
      </trkpt>
      <trkpt lat="49.64141" lon="4.98145">
        <ele>162.12</ele>
        <time>2018-09-24T15:28:47Z</time>
      </trkpt>
      <trkpt lat="49.64133" lon="4.98136">
        <ele>162.12</ele>
        <time>2018-09-24T15:29:05Z</time>
      </trkpt>
      <trkpt lat="49.64122" lon="4.98127">
        <ele>164.52</ele>
        <time>2018-09-24T15:29:22Z</time>
      </trkpt>
      <trkpt lat="49.64114" lon="4.98116">
        <ele>165</ele>
        <time>2018-09-24T15:29:41Z</time>
      </trkpt>
      <trkpt lat="49.64094" lon="4.98099">
        <ele>165.48</ele>
        <time>2018-09-24T15:30:01Z</time>
      </trkpt>
      <trkpt lat="49.64076" lon="4.9808">
        <ele>163.56</ele>
        <time>2018-09-24T15:30:23Z</time>
      </trkpt>
      <trkpt lat="49.64056" lon="4.98063">
        <ele>164.04</ele>
        <time>2018-09-24T15:30:43Z</time>
      </trkpt>
      <trkpt lat="49.64035" lon="4.98041">
        <ele>163.08</ele>
        <time>2018-09-24T15:31:02Z</time>
      </trkpt>
      <trkpt lat="49.64014" lon="4.98021">
        <ele>162.6</ele>
        <time>2018-09-24T15:31:22Z</time>
      </trkpt>
      <trkpt lat="49.64005" lon="4.98013">
        <ele>165</ele>
        <time>2018-09-24T15:31:40Z</time>
      </trkpt>
      <trkpt lat="49.63987" lon="4.97996">
        <ele>164.52</ele>
        <time>2018-09-24T15:32:00Z</time>
      </trkpt>
      <trkpt lat="49.63965" lon="4.97976">
        <ele>164.52</ele>
        <time>2018-09-24T15:32:22Z</time>
      </trkpt>
      <trkpt lat="49.63946" lon="4.97958">
        <ele>166.93</ele>
        <time>2018-09-24T15:32:42Z</time>
      </trkpt>
      <trkpt lat="49.63932" lon="4.97945">
        <ele>168.85</ele>
        <time>2018-09-24T15:32:58Z</time>
      </trkpt>
      <trkpt lat="49.63917" lon="4.97927">
        <ele>170.77</ele>
        <time>2018-09-24T15:33:18Z</time>
      </trkpt>
      <trkpt lat="49.63901" lon="4.9791">
        <ele>171.25</ele>
        <time>2018-09-24T15:33:39Z</time>
      </trkpt>
      <trkpt lat="49.63889" lon="4.97902">
        <ele>171.25</ele>
        <time>2018-09-24T15:34:01Z</time>
      </trkpt>
      <trkpt lat="49.63868" lon="4.97883">
        <ele>171.25</ele>
        <time>2018-09-24T15:34:22Z</time>
      </trkpt>
      <trkpt lat="49.63851" lon="4.97868">
        <ele>170.77</ele>
        <time>2018-09-24T15:34:41Z</time>
      </trkpt>
      <trkpt lat="49.63829" lon="4.97842">
        <ele>168.85</ele>
        <time>2018-09-24T15:35:00Z</time>
      </trkpt>
      <trkpt lat="49.63809" lon="4.97824">
        <ele>168.85</ele>
        <time>2018-09-24T15:35:18Z</time>
      </trkpt>
      <trkpt lat="49.63795" lon="4.97805">
        <ele>169.81</ele>
        <time>2018-09-24T15:35:35Z</time>
      </trkpt>
      <trkpt lat="49.63783" lon="4.97791">
        <ele>169.33</ele>
        <time>2018-09-24T15:35:49Z</time>
      </trkpt>
      <trkpt lat="49.63768" lon="4.97779">
        <ele>172.21</ele>
        <time>2018-09-24T15:36:05Z</time>
      </trkpt>
      <trkpt lat="49.63761" lon="4.97773">
        <ele>172.21</ele>
        <time>2018-09-24T15:36:14Z</time>
      </trkpt>
      <trkpt lat="49.63746" lon="4.97759">
        <ele>170.77</ele>
        <time>2018-09-24T15:36:31Z</time>
      </trkpt>
      <trkpt lat="49.63729" lon="4.97753">
        <ele>170.29</ele>
        <time>2018-09-24T15:36:50Z</time>
      </trkpt>
      <trkpt lat="49.63717" lon="4.97744">
        <ele>169.33</ele>
        <time>2018-09-24T15:37:06Z</time>
      </trkpt>
      <trkpt lat="49.63703" lon="4.97734">
        <ele>167.41</ele>
        <time>2018-09-24T15:37:23Z</time>
      </trkpt>
      <trkpt lat="49.6369" lon="4.97727">
        <ele>165</ele>
        <time>2018-09-24T15:37:39Z</time>
      </trkpt>
      <trkpt lat="49.63682" lon="4.97718">
        <ele>164.52</ele>
        <time>2018-09-24T15:37:57Z</time>
      </trkpt>
      <trkpt lat="49.63678" lon="4.97714">
        <ele>164.52</ele>
        <time>2018-09-24T15:38:13Z</time>
      </trkpt>
      <trkpt lat="49.6366" lon="4.977">
        <ele>165</ele>
        <time>2018-09-24T15:38:33Z</time>
      </trkpt>
      <trkpt lat="49.63642" lon="4.97686">
        <ele>165</ele>
        <time>2018-09-24T15:38:52Z</time>
      </trkpt>
      <trkpt lat="49.63627" lon="4.9767">
        <ele>164.52</ele>
        <time>2018-09-24T15:39:10Z</time>
      </trkpt>
      <trkpt lat="49.63611" lon="4.97663">
        <ele>166.93</ele>
        <time>2018-09-24T15:39:28Z</time>
      </trkpt>
      <trkpt lat="49.63608" lon="4.97665">
        <ele>167.41</ele>
        <time>2018-09-24T15:39:42Z</time>
      </trkpt>
      <trkpt lat="49.63596" lon="4.97673">
        <ele>169.81</ele>
        <time>2018-09-24T15:39:57Z</time>
      </trkpt>
      <trkpt lat="49.63582" lon="4.97687">
        <ele>168.85</ele>
        <time>2018-09-24T15:40:15Z</time>
      </trkpt>
      <trkpt lat="49.63564" lon="4.97711">
        <ele>167.89</ele>
        <time>2018-09-24T15:40:36Z</time>
      </trkpt>
      <trkpt lat="49.63551" lon="4.97743">
        <ele>165.96</ele>
        <time>2018-09-24T15:40:58Z</time>
      </trkpt>
      <trkpt lat="49.63538" lon="4.97773">
        <ele>165.48</ele>
        <time>2018-09-24T15:41:17Z</time>
      </trkpt>
      <trkpt lat="49.63524" lon="4.97788">
        <ele>167.41</ele>
        <time>2018-09-24T15:41:33Z</time>
      </trkpt>
      <trkpt lat="49.63504" lon="4.97807">
        <ele>170.77</ele>
        <time>2018-09-24T15:41:52Z</time>
      </trkpt>
      <trkpt lat="49.63495" lon="4.9782">
        <ele>171.25</ele>
        <time>2018-09-24T15:42:11Z</time>
      </trkpt>
      <trkpt lat="49.63485" lon="4.97836">
        <ele>169.81</ele>
        <time>2018-09-24T15:42:26Z</time>
      </trkpt>
      <trkpt lat="49.63477" lon="4.97853">
        <ele>170.29</ele>
        <time>2018-09-24T15:42:39Z</time>
      </trkpt>
      <trkpt lat="49.63457" lon="4.97877">
        <ele>173.66</ele>
        <time>2018-09-24T15:42:59Z</time>
      </trkpt>
      <trkpt lat="49.63451" lon="4.97888">
        <ele>174.62</ele>
        <time>2018-09-24T15:43:10Z</time>
      </trkpt>
      <trkpt lat="49.63435" lon="4.97899">
        <ele>176.06</ele>
        <time>2018-09-24T15:43:27Z</time>
      </trkpt>
      <trkpt lat="49.63418" lon="4.97908">
        <ele>175.58</ele>
        <time>2018-09-24T15:43:44Z</time>
      </trkpt>
      <trkpt lat="49.63409" lon="4.97918">
        <ele>175.58</ele>
        <time>2018-09-24T15:44:01Z</time>
      </trkpt>
      <trkpt lat="49.63406" lon="4.97921">
        <ele>175.1</ele>
        <time>2018-09-24T15:44:15Z</time>
      </trkpt>
      <trkpt lat="49.63397" lon="4.97927">
        <ele>174.14</ele>
        <time>2018-09-24T15:44:32Z</time>
      </trkpt>
      <trkpt lat="49.6339" lon="4.97941">
        <ele>173.66</ele>
        <time>2018-09-24T15:44:49Z</time>
      </trkpt>
      <trkpt lat="49.63383" lon="4.9795">
        <ele>176.06</ele>
        <time>2018-09-24T15:45:06Z</time>
      </trkpt>
      <trkpt lat="49.63388" lon="4.97962">
        <ele>176.06</ele>
        <time>2018-09-24T15:45:22Z</time>
      </trkpt>
      <trkpt lat="49.63392" lon="4.9798">
        <ele>175.58</ele>
        <time>2018-09-24T15:45:37Z</time>
      </trkpt>
      <trkpt lat="49.63403" lon="4.98003">
        <ele>177.02</ele>
        <time>2018-09-24T15:45:56Z</time>
      </trkpt>
      <trkpt lat="49.63409" lon="4.98026">
        <ele>178.94</ele>
        <time>2018-09-24T15:46:15Z</time>
      </trkpt>
      <trkpt lat="49.63425" lon="4.98045">
        <ele>179.9</ele>
        <time>2018-09-24T15:46:33Z</time>
      </trkpt>
      <trkpt lat="49.63438" lon="4.98036">
        <ele>183.75</ele>
        <time>2018-09-24T15:46:48Z</time>
      </trkpt>
      <trkpt lat="49.63442" lon="4.98035">
        <ele>182.79</ele>
        <time>2018-09-24T15:47:01Z</time>
      </trkpt>
    </trkseg>
  </trk>
</gpx>